Observation data for Menard on 07/04/2020      Previous  Date  Next       Current Mesonet Observations  Soil Data  Daily Summary Page  Observations in Plain Language
KMD1 040500Z 02002KT 26/15 A3002 RMK A01 T02560151  RH  052%=      5-min Rain = 0
KMD1 040501Z 03001KT 26/15 A3002 RMK A01 T02550151  RH  052%=      5-min Rain = 0
KMD1 040502Z 04001KT 26/15 A3002 RMK A01 T02550151  RH  053%=      5-min Rain = 0
KMD1 040503Z 02001KT 25/15 A3002 RMK A01 T02540151  RH  053%=      5-min Rain = 0
KMD1 040504Z 01001KT 25/15 A3002 RMK A01 T02540150  RH  052%=      5-min Rain = 0
KMD1 040505Z 33001KT 26/15 A3002 RMK A01 T02550151  RH  052%=      5-min Rain = 0
KMD1 040506Z 34001KT 26/15 A3002 RMK A01 T02550151  RH  053%=      5-min Rain = 0
KMD1 040507Z 35002KT 25/15 A3002 RMK A01 T02540150  RH  052%=      5-min Rain = 0
KMD1 040508Z 34001KT 26/15 A3002 RMK A01 T02550151  RH  052%=      5-min Rain = 0
KMD1 040509Z 31002KT 26/15 A3002 RMK A01 T02560153  RH  053%=      5-min Rain = 0
KMD1 040510Z 31002KT 26/15 A3002 RMK A01 T02550151  RH  053%=      5-min Rain = 0
KMD1 040511Z 31002KT 25/15 A3002 RMK A01 T02540151  RH  053%=      5-min Rain = 0
KMD1 040512Z 31002KT 26/15 A3002 RMK A01 T02550152  RH  053%=      5-min Rain = 0
KMD1 040513Z 32002KT 25/15 A3002 RMK A01 T02540152  RH  053%=      5-min Rain = 0
KMD1 040514Z 32002KT 25/15 A3002 RMK A01 T02540150  RH  052%=      5-min Rain = 0
KMD1 040515Z 33003KT 25/15 A3002 RMK A01 T02540152  RH  053%=      5-min Rain = 0
KMD1 040516Z 33002KT 25/15 A3002 RMK A01 T02540154  RH  054%=      5-min Rain = 0
KMD1 040517Z 33002KT 25/16 A3002 RMK A01 T02520155  RH  055%=      5-min Rain = 0
KMD1 040518Z 34002KT 25/15 A3002 RMK A01 T02500152  RH  054%=      5-min Rain = 0
KMD1 040519Z 33003KT 25/15 A3002 RMK A01 T02510152  RH  054%=      5-min Rain = 0
KMD1 040520Z 32003KT 25/15 A3001 RMK A01 T02520151  RH  054%=      5-min Rain = 0
KMD1 040521Z 33002KT 25/15 A3001 RMK A01 T02510153  RH  054%=      5-min Rain = 0
KMD1 040522Z 01002KT 25/15 A3001 RMK A01 T02500152  RH  054%=      5-min Rain = 0
KMD1 040523Z 31001KT 25/15 A3001 RMK A01 T02490153  RH  055%=      5-min Rain = 0
KMD1 040524Z 31002KT 25/15 A3001 RMK A01 T02480153  RH  055%=      5-min Rain = 0
KMD1 040525Z 31002KT 25/15 A3001 RMK A01 T02480151  RH  055%=      5-min Rain = 0
KMD1 040526Z 32002KT 25/15 A3001 RMK A01 T02480149  RH  054%=      5-min Rain = 0
KMD1 040527Z 33002KT 25/15 A3001 RMK A01 T02500152  RH  054%=      5-min Rain = 0
KMD1 040528Z 34001KT 25/16 A3002 RMK A01 T02490155  RH  056%=      5-min Rain = 0
KMD1 040529Z 33001KT 25/16 A3002 RMK A01 T02470155  RH  057%=      5-min Rain = 0
KMD1 040530Z 33001KT 24/16 A3002 RMK A01 T02440155  RH  057%=      5-min Rain = 0
KMD1 040531Z 33002KT 24/16 A3002 RMK A01 T02430155  RH  058%=      5-min Rain = 0
KMD1 040532Z 35002KT 24/16 A3002 RMK A01 T02410155  RH  059%=      5-min Rain = 0
KMD1 040533Z 34002KT 24/16 A3002 RMK A01 T02410155  RH  059%=      5-min Rain = 0
KMD1 040534Z 34002KT 24/16 A3002 RMK A01 T02410155  RH  059%=      5-min Rain = 0
KMD1 040535Z 35002KT 24/16 A3002 RMK A01 T02400155  RH  059%=      5-min Rain = 0
KMD1 040536Z 00002KT 24/15 A3002 RMK A01 T02380154  RH  059%=      5-min Rain = 0
KMD1 040537Z 35002KT 24/15 A3002 RMK A01 T02370154  RH  060%=      5-min Rain = 0
KMD1 040538Z 34002KT 24/16 A3002 RMK A01 T02360155  RH  060%=      5-min Rain = 0
KMD1 040539Z 33002KT 24/16 A3002 RMK A01 T02350155  RH  061%=      5-min Rain = 0
KMD1 040540Z 31001KT 23/15 A3002 RMK A01 T02340154  RH  061%=      5-min Rain = 0
KMD1 040541Z 32002KT 23/15 A3002 RMK A01 T02340154  RH  061%=      5-min Rain = 0
KMD1 040542Z 30002KT 23/15 A3001 RMK A01 T02340154  RH  061%=      5-min Rain = 0
KMD1 040543Z 30001KT 24/15 A3001 RMK A01 T02360154  RH  060%=      5-min Rain = 0
KMD1 040544Z 31002KT 24/16 A3001 RMK A01 T02380155  RH  060%=      5-min Rain = 0
KMD1 040545Z 33001KT 24/16 A3001 RMK A01 T02380156  RH  060%=      5-min Rain = 0
KMD1 040546Z 33001KT 24/16 A3001 RMK A01 T02380155  RH  060%=      5-min Rain = 0
KMD1 040547Z 33001KT 24/16 A3001 RMK A01 T02370156  RH  060%=      5-min Rain = 0
KMD1 040548Z 33001KT 24/16 A3001 RMK A01 T02370157  RH  060%=      5-min Rain = 0
KMD1 040549Z 00000KT 24/16 A3001 RMK A01 T02360156  RH  061%=      5-min Rain = 0
KMD1 040550Z 29000KT 24/16 A3001 RMK A01 T02360157  RH  061%=      5-min Rain = 0
KMD1 040551Z 29001KT 24/16 A3001 RMK A01 T02350156  RH  061%=      5-min Rain = 0
KMD1 040552Z 26001KT 24/15 A3001 RMK A01 T02350154  RH  061%=      5-min Rain = 0
KMD1 040553Z 24001KT 24/16 A3001 RMK A01 T02380156  RH  060%=      5-min Rain = 0
KMD1 040554Z 28000KT 24/16 A3001 RMK A01 T02390158  RH  060%=      5-min Rain = 0
KMD1 040555Z 25000KT 24/16 A3001 RMK A01 T02400157  RH  060%=      5-min Rain = 0
KMD1 040556Z 24001KT 24/16 A3001 RMK A01 T02400157  RH  060%=      5-min Rain = 0
KMD1 040557Z 21001KT 24/16 A3001 RMK A01 T02410157  RH  059%=      5-min Rain = 0
KMD1 040558Z 25001KT 24/16 A3001 RMK A01 T02420156  RH  058%=      5-min Rain = 0
KMD1 040559Z 00000KT 25/16 A3001 RMK A01 T02450157  RH  058%=      5-min Rain = 0
KMD1 040600Z 30000KT 25/16 A3001 RMK A01 T02460159  RH  058%=      5-min Rain = 0
KMD1 040601Z 29000KT 24/16 A3001 RMK A01 T02440158  RH  059%=      5-min Rain = 0
KMD1 040602Z 01000KT 24/16 A3001 RMK A01 T02440159  RH  059%=      5-min Rain = 0
KMD1 040603Z 36000KT 24/16 A3001 RMK A01 T02420159  RH  060%=      5-min Rain = 0
KMD1 040604Z 00000KT 24/16 A3001 RMK A01 T02410158  RH  060%=      5-min Rain = 0
KMD1 040605Z 00000KT 24/16 A3001 RMK A01 T02410159  RH  060%=      5-min Rain = 0
KMD1 040606Z 00000KT 24/16 A3001 RMK A01 T02400159  RH  061%=      5-min Rain = 0
KMD1 040607Z 03000KT 24/16 A3001 RMK A01 T02380160  RH  061%=      5-min Rain = 0
KMD1 040608Z 02000KT 24/16 A3001 RMK A01 T02370160  RH  062%=      5-min Rain = 0
KMD1 040609Z 05001KT 24/16 A3001 RMK A01 T02350160  RH  063%=      5-min Rain = 0
KMD1 040610Z 08000KT 23/16 A3001 RMK A01 T02340161  RH  063%=      5-min Rain = 0
KMD1 040611Z 11001KT 23/16 A3001 RMK A01 T02330161  RH  064%=      5-min Rain = 0
KMD1 040612Z 07000KT 23/16 A3001 RMK A01 T02330161  RH  064%=      5-min Rain = 0
KMD1 040613Z 09002KT 23/16 A3001 RMK A01 T02320160  RH  064%=      5-min Rain = 0
KMD1 040614Z 11001KT 23/16 A3001 RMK A01 T02320160  RH  064%=      5-min Rain = 0
KMD1 040615Z 11001KT 23/16 A3001 RMK A01 T02320159  RH  063%=      5-min Rain = 0
KMD1 040616Z 12001KT 24/16 A3001 RMK A01 T02360160  RH  062%=      5-min Rain = 0
KMD1 040617Z 15000KT 24/16 A3001 RMK A01 T02400160  RH  061%=      5-min Rain = 0
KMD1 040618Z 12000KT 24/16 A3002 RMK A01 T02440160  RH  060%=      5-min Rain = 0
KMD1 040619Z 14001KT 25/16 A3002 RMK A01 T02460161  RH  059%=      5-min Rain = 0
KMD1 040620Z 13000KT 25/16 A3002 RMK A01 T02460161  RH  059%=      5-min Rain = 0
KMD1 040621Z 00000KT 25/16 A3002 RMK A01 T02470161  RH  059%=      5-min Rain = 0
KMD1 040622Z 04000KT 25/16 A3002 RMK A01 T02460162  RH  060%=      5-min Rain = 0
KMD1 040623Z 06000KT 24/16 A3002 RMK A01 T02430162  RH  060%=      5-min Rain = 0
KMD1 040624Z 00000KT 24/16 A3002 RMK A01 T02410161  RH  061%=      5-min Rain = 0
KMD1 040625Z 13000KT 24/16 A3002 RMK A01 T02400162  RH  062%=      5-min Rain = 0
KMD1 040626Z 12002KT 24/16 A3001 RMK A01 T02390161  RH  062%=      5-min Rain = 0
KMD1 040627Z 09001KT 24/16 A3001 RMK A01 T02380162  RH  062%=      5-min Rain = 0
KMD1 040628Z 11003KT 24/16 A3001 RMK A01 T02370162  RH  063%=      5-min Rain = 0
KMD1 040629Z 10002KT 24/16 A3001 RMK A01 T02370161  RH  062%=      5-min Rain = 0
KMD1 040630Z 07002KT 24/16 A3002 RMK A01 T02380161  RH  062%=      5-min Rain = 0
KMD1 040631Z 08002KT 24/16 A3002 RMK A01 T02400162  RH  062%=      5-min Rain = 0
KMD1 040632Z 08002KT 24/16 A3002 RMK A01 T02390163  RH  062%=      5-min Rain = 0
KMD1 040633Z 08002KT 24/16 A3002 RMK A01 T02370162  RH  063%=      5-min Rain = 0
KMD1 040634Z 06001KT 24/16 A3002 RMK A01 T02360161  RH  063%=      5-min Rain = 0
KMD1 040635Z 05001KT 24/16 A3002 RMK A01 T02360162  RH  063%=      5-min Rain = 0
KMD1 040636Z 09001KT 24/16 A3002 RMK A01 T02350162  RH  064%=      5-min Rain = 0
KMD1 040637Z 10001KT 23/16 A3001 RMK A01 T02340162  RH  064%=      5-min Rain = 0
KMD1 040638Z 09001KT 23/16 A3001 RMK A01 T02340162  RH  064%=      5-min Rain = 0
KMD1 040639Z 09001KT 23/16 A3001 RMK A01 T02340163  RH  064%=      5-min Rain = 0
KMD1 040640Z 00000KT 23/16 A3001 RMK A01 T02340163  RH  064%=      5-min Rain = 0
KMD1 040641Z 11000KT 23/16 A3001 RMK A01 T02340163  RH  064%=      5-min Rain = 0
KMD1 040642Z 12000KT 23/16 A3001 RMK A01 T02330163  RH  064%=      5-min Rain = 0
KMD1 040643Z 15000KT 23/16 A3001 RMK A01 T02330162  RH  064%=      5-min Rain = 0
KMD1 040644Z 13001KT 23/16 A3001 RMK A01 T02330162  RH  064%=      5-min Rain = 0
KMD1 040645Z 12001KT 24/16 A3001 RMK A01 T02360163  RH  063%=      5-min Rain = 0
KMD1 040646Z 13001KT 24/16 A3001 RMK A01 T02380164  RH  063%=      5-min Rain = 0
KMD1 040647Z 15002KT 24/16 A3001 RMK A01 T02380163  RH  063%=      5-min Rain = 0
KMD1 040648Z 15002KT 24/16 A3001 RMK A01 T02390163  RH  062%=      5-min Rain = 0
KMD1 040649Z 15002KT 24/16 A3001 RMK A01 T02430163  RH  061%=      5-min Rain = 0
KMD1 040650Z 15001KT 25/16 A3001 RMK A01 T02450163  RH  060%=      5-min Rain = 0
KMD1 040651Z 16002KT 25/16 A3001 RMK A01 T02460164  RH  060%=      5-min Rain = 0
KMD1 040652Z 16002KT 25/16 A3001 RMK A01 T02450164  RH  061%=      5-min Rain = 0
KMD1 040653Z 19002KT 25/16 A3001 RMK A01 T02460164  RH  060%=      5-min Rain = 0
KMD1 040654Z 14001KT 25/16 A3001 RMK A01 T02460164  RH  060%=      5-min Rain = 0
KMD1 040655Z 00000KT 25/17 A3001 RMK A01 T02460165  RH  060%=      5-min Rain = 0
KMD1 040656Z 20000KT 25/16 A3001 RMK A01 T02450164  RH  061%=      5-min Rain = 0
KMD1 040657Z 19000KT 25/16 A3001 RMK A01 T02450164  RH  061%=      5-min Rain = 0
KMD1 040658Z 00000KT 24/17 A3001 RMK A01 T02430166  RH  062%=      5-min Rain = 0
KMD1 040659Z 12000KT 24/17 A3001 RMK A01 T02400166  RH  063%=      5-min Rain = 0
KMD1 040700Z 00000KT 24/17 A3001 RMK A01 T02370165  RH  064%=      5-min Rain = 0
KMD1 040701Z 23000KT 24/17 A3001 RMK A01 T02360165  RH  064%=      5-min Rain = 0
KMD1 040702Z 22001KT 24/17 A3001 RMK A01 T02370166  RH  064%=      5-min Rain = 0
KMD1 040703Z 20001KT 24/17 A3001 RMK A01 T02370165  RH  064%=      5-min Rain = 0
KMD1 040704Z 24000KT 24/17 A3001 RMK A01 T02370165  RH  064%=      5-min Rain = 0
KMD1 040705Z 26001KT 24/17 A3001 RMK A01 T02390166  RH  064%=      5-min Rain = 0
KMD1 040706Z 26000KT 24/17 A3001 RMK A01 T02410166  RH  063%=      5-min Rain = 0
KMD1 040707Z 25001KT 24/17 A3001 RMK A01 T02430166  RH  062%=      5-min Rain = 0
KMD1 040708Z 27001KT 24/17 A3001 RMK A01 T02440166  RH  062%=      5-min Rain = 0
KMD1 040709Z 29001KT 24/17 A3001 RMK A01 T02440167  RH  062%=      5-min Rain = 0
KMD1 040710Z 26002KT 24/17 A3001 RMK A01 T02430167  RH  062%=      5-min Rain = 0
KMD1 040711Z 27002KT 24/17 A3001 RMK A01 T02430167  RH  062%=      5-min Rain = 0
KMD1 040712Z 29002KT 24/17 A3001 RMK A01 T02430167  RH  062%=      5-min Rain = 0
KMD1 040713Z 30002KT 24/17 A3001 RMK A01 T02430167  RH  062%=      5-min Rain = 0
KMD1 040714Z 26002KT 24/17 A3001 RMK A01 T02430167  RH  063%=      5-min Rain = 0
KMD1 040715Z 29002KT 24/17 A3001 RMK A01 T02430167  RH  063%=      5-min Rain = 0
KMD1 040716Z 29001KT 24/17 A3001 RMK A01 T02420167  RH  063%=      5-min Rain = 0
KMD1 040717Z 30001KT 24/17 A3001 RMK A01 T02420167  RH  063%=      5-min Rain = 0
KMD1 040718Z 31001KT 24/17 A3001 RMK A01 T02410167  RH  063%=      5-min Rain = 0
KMD1 040719Z 31001KT 24/17 A3001 RMK A01 T02390167  RH  064%=      5-min Rain = 0
KMD1 040720Z 30001KT 24/17 A3001 RMK A01 T02370167  RH  065%=      5-min Rain = 0
KMD1 040721Z 28001KT 24/17 A3001 RMK A01 T02350167  RH  066%=      5-min Rain = 0
KMD1 040722Z 32001KT 23/17 A3001 RMK A01 T02320166  RH  066%=      5-min Rain = 0
KMD1 040723Z 32001KT 23/17 A3001 RMK A01 T02300166  RH  067%=      5-min Rain = 0
KMD1 040724Z 32001KT 23/17 A3001 RMK A01 T02270166  RH  068%=      5-min Rain = 0
KMD1 040725Z 32001KT 23/17 A3001 RMK A01 T02260166  RH  069%=      5-min Rain = 0
KMD1 040726Z 31001KT 23/17 A3001 RMK A01 T02250166  RH  069%=      5-min Rain = 0
KMD1 040727Z 31001KT 22/17 A3001 RMK A01 T02230166  RH  070%=      5-min Rain = 0
KMD1 040728Z 30000KT 22/17 A3001 RMK A01 T02230165  RH  070%=      5-min Rain = 0
KMD1 040729Z 30000KT 23/17 A3001 RMK A01 T02250166  RH  069%=      5-min Rain = 0
KMD1 040730Z 31000KT 23/17 A3001 RMK A01 T02260166  RH  069%=      5-min Rain = 0
KMD1 040731Z 35001KT 23/17 A3001 RMK A01 T02250167  RH  069%=      5-min Rain = 0
KMD1 040732Z 00000KT 23/17 A3001 RMK A01 T02260166  RH  069%=      5-min Rain = 0
KMD1 040733Z 00000KT 23/17 A3001 RMK A01 T02280167  RH  068%=      5-min Rain = 0
KMD1 040734Z 00000KT 23/17 A3001 RMK A01 T02300167  RH  067%=      5-min Rain = 0
KMD1 040735Z 00000KT 23/17 A3001 RMK A01 T02310168  RH  068%=      5-min Rain = 0
KMD1 040736Z 00000KT 23/17 A3001 RMK A01 T02290168  RH  068%=      5-min Rain = 0
KMD1 040737Z 32001KT 23/17 A3001 RMK A01 T02290167  RH  068%=      5-min Rain = 0
KMD1 040738Z 30001KT 23/17 A3001 RMK A01 T02280167  RH  068%=      5-min Rain = 0
KMD1 040739Z 28001KT 23/17 A3001 RMK A01 T02270168  RH  069%=      5-min Rain = 0
KMD1 040740Z 24002KT 23/17 A3001 RMK A01 T02270168  RH  069%=      5-min Rain = 0
KMD1 040741Z 23002KT 23/17 A3001 RMK A01 T02270168  RH  069%=      5-min Rain = 0
KMD1 040742Z 23002KT 23/17 A3001 RMK A01 T02280167  RH  069%=      5-min Rain = 0
KMD1 040743Z 23002KT 23/17 A3001 RMK A01 T02290166  RH  068%=      5-min Rain = 0
KMD1 040744Z 23002KT 23/17 A30 RMK A01 T02320166  RH  067%=      5-min Rain = 0
KMD1 040745Z 22002KT 23/17 A30 RMK A01 T02330166  RH  066%=      5-min Rain = 0
KMD1 040746Z 23002KT 24/17 A30 RMK A01 T02350166  RH  065%=      5-min Rain = 0
KMD1 040747Z 22002KT 24/17 A30 RMK A01 T02360166  RH  065%=      5-min Rain = 0
KMD1 040748Z 22001KT 24/17 A30 RMK A01 T02370166  RH  064%=      5-min Rain = 0
KMD1 040749Z 22001KT 24/17 A30 RMK A01 T02370165  RH  064%=      5-min Rain = 0
KMD1 040750Z 21001KT 24/17 A30 RMK A01 T02370165  RH  064%=      5-min Rain = 0
KMD1 040751Z 19001KT 24/17 A30 RMK A01 T02370167  RH  065%=      5-min Rain = 0
KMD1 040752Z 16000KT 24/17 A30 RMK A01 T02350166  RH  065%=      5-min Rain = 0
KMD1 040753Z 17001KT 23/17 A30 RMK A01 T02340166  RH  066%=      5-min Rain = 0
KMD1 040754Z 18001KT 23/17 A30 RMK A01 T02330168  RH  067%=      5-min Rain = 0
KMD1 040755Z 18000KT 23/17 A30 RMK A01 T02290169  RH  069%=      5-min Rain = 0
KMD1 040756Z 00000KT 23/17 A30 RMK A01 T02250170  RH  071%=      5-min Rain = 0
KMD1 040757Z 00000KT 22/17 A30 RMK A01 T02210171  RH  073%=      5-min Rain = 0
KMD1 040758Z 00000KT 22/17 A30 RMK A01 T02190172  RH  075%=      5-min Rain = 0
KMD1 040759Z 31000KT 22/17 A30 RMK A01 T02170171  RH  075%=      5-min Rain = 0
KMD1 040800Z 30000KT 22/17 A30 RMK A01 T02160170  RH  075%=      5-min Rain = 0
KMD1 040801Z 29001KT 21/17 A30 RMK A01 T02140169  RH  076%=      5-min Rain = 0
KMD1 040802Z 28001KT 22/17 A30 RMK A01 T02150169  RH  075%=      5-min Rain = 0
KMD1 040803Z 30001KT 22/17 A30 RMK A01 T02170168  RH  074%=      5-min Rain = 0
KMD1 040804Z 31001KT 22/17 A30 RMK A01 T02180168  RH  073%=      5-min Rain = 0
KMD1 040805Z 31001KT 22/17 A30 RMK A01 T02180168  RH  073%=      5-min Rain = 0
KMD1 040806Z 31001KT 22/17 A30 RMK A01 T02210168  RH  072%=      5-min Rain = 0
KMD1 040807Z 30001KT 22/17 A30 RMK A01 T02240168  RH  071%=      5-min Rain = 0
KMD1 040808Z 31001KT 23/17 A30 RMK A01 T02250168  RH  070%=      5-min Rain = 0
KMD1 040809Z 32001KT 23/17 A30 RMK A01 T02250168  RH  070%=      5-min Rain = 0
KMD1 040810Z 34001KT 23/17 A30 RMK A01 T02250169  RH  071%=      5-min Rain = 0
KMD1 040811Z 35001KT 22/17 A30 RMK A01 T02230169  RH  071%=      5-min Rain = 0
KMD1 040812Z 35001KT 22/17 A30 RMK A01 T02210168  RH  072%=      5-min Rain = 0
KMD1 040813Z 35001KT 22/17 A30 RMK A01 T02190167  RH  073%=      5-min Rain = 0
KMD1 040814Z 36002KT 22/17 A30 RMK A01 T02160167  RH  073%=      5-min Rain = 0
KMD1 040815Z 35002KT 22/17 A30 RMK A01 T02150167  RH  074%=      5-min Rain = 0
KMD1 040816Z 35002KT 21/17 A30 RMK A01 T02130167  RH  075%=      5-min Rain = 0
KMD1 040817Z 35003KT 21/17 A30 RMK A01 T02120167  RH  075%=      5-min Rain = 0
KMD1 040818Z 33002KT 21/17 A30 RMK A01 T02120167  RH  076%=      5-min Rain = 0
KMD1 040819Z 32002KT 21/17 A30 RMK A01 T02110167  RH  076%=      5-min Rain = 0
KMD1 040820Z 32002KT 21/17 A2999 RMK A01 T02120167  RH  076%=      5-min Rain = 0
KMD1 040821Z 30002KT 22/17 A2999 RMK A01 T02150168  RH  075%=      5-min Rain = 0
KMD1 040822Z 29003KT 22/17 A2999 RMK A01 T02170169  RH  074%=      5-min Rain = 0
KMD1 040823Z 30002KT 22/17 A2999 RMK A01 T02200169  RH  073%=      5-min Rain = 0
KMD1 040824Z 30003KT 22/17 A2999 RMK A01 T02210170  RH  073%=      5-min Rain = 0
KMD1 040825Z 29003KT 22/17 A2999 RMK A01 T02200170  RH  073%=      5-min Rain = 0
KMD1 040826Z 29003KT 22/17 A2999 RMK A01 T02200170  RH  073%=      5-min Rain = 0
KMD1 040827Z 28003KT 22/17 A2999 RMK A01 T02190170  RH  073%=      5-min Rain = 0
KMD1 040828Z 27003KT 22/17 A2999 RMK A01 T02200170  RH  073%=      5-min Rain = 0
KMD1 040829Z 27003KT 22/17 A2999 RMK A01 T02210170  RH  073%=      5-min Rain = 0
KMD1 040830Z 27002KT 22/17 A2999 RMK A01 T02220170  RH  072%=      5-min Rain = 0
KMD1 040831Z 28003KT 22/17 A2999 RMK A01 T02230170  RH  072%=      5-min Rain = 0
KMD1 040832Z 28003KT 22/17 A2999 RMK A01 T02240170  RH  071%=      5-min Rain = 0
KMD1 040833Z 28003KT 23/17 A2999 RMK A01 T02250170  RH  071%=      5-min Rain = 0
KMD1 040834Z 27003KT 23/17 A2999 RMK A01 T02260170  RH  071%=      5-min Rain = 0
KMD1 040835Z 27003KT 23/17 A2999 RMK A01 T02260170  RH  070%=      5-min Rain = 0
KMD1 040836Z 26003KT 23/17 A2999 RMK A01 T02260170  RH  071%=      5-min Rain = 0
KMD1 040837Z 26003KT 23/17 A2999 RMK A01 T02260170  RH  070%=      5-min Rain = 0
KMD1 040838Z 25003KT 23/17 A2999 RMK A01 T02270170  RH  070%=      5-min Rain = 0
KMD1 040839Z 25003KT 23/17 A2999 RMK A01 T02270170  RH  070%=      5-min Rain = 0
KMD1 040840Z 25003KT 23/17 A2999 RMK A01 T02280170  RH  070%=      5-min Rain = 0
KMD1 040841Z 26003KT 23/17 A2999 RMK A01 T02280170  RH  070%=      5-min Rain = 0
KMD1 040842Z 25003KT 23/17 A2999 RMK A01 T02290170  RH  069%=      5-min Rain = 0
KMD1 040843Z 26003KT 23/17 A2999 RMK A01 T02290171  RH  070%=      5-min Rain = 0
KMD1 040844Z 25003KT 23/17 A2999 RMK A01 T02270170  RH  070%=      5-min Rain = 0
KMD1 040845Z 25003KT 23/17 A2999 RMK A01 T02260170  RH  070%=      5-min Rain = 0
KMD1 040846Z 25003KT 23/17 A2999 RMK A01 T02250170  RH  071%=      5-min Rain = 0
KMD1 040847Z 25003KT 22/17 A2999 RMK A01 T02240170  RH  072%=      5-min Rain = 0
KMD1 040848Z 25003KT 22/17 A2999 RMK A01 T02200171  RH  074%=      5-min Rain = 0
KMD1 040849Z 25003KT 22/17 A2999 RMK A01 T02180171  RH  075%=      5-min Rain = 0
KMD1 040850Z 25003KT 22/17 A2999 RMK A01 T02160171  RH  076%=      5-min Rain = 0
KMD1 040851Z 25003KT 22/17 A2999 RMK A01 T02160173  RH  077%=      5-min Rain = 0
KMD1 040852Z 26004KT 22/17 A2998 RMK A01 T02160173  RH  076%=      5-min Rain = 0
KMD1 040853Z 26004KT 22/17 A2998 RMK A01 T02160173  RH  076%=      5-min Rain = 0
KMD1 040854Z 26003KT 22/17 A2998 RMK A01 T02170173  RH  076%=      5-min Rain = 0
KMD1 040855Z 26003KT 22/17 A2998 RMK A01 T02170173  RH  076%=      5-min Rain = 0
KMD1 040856Z 26003KT 22/17 A2998 RMK A01 T02170174  RH  076%=      5-min Rain = 0
KMD1 040857Z 26004KT 22/17 A2998 RMK A01 T02160174  RH  077%=      5-min Rain = 0
KMD1 040858Z 26004KT 22/17 A2998 RMK A01 T02160174  RH  077%=      5-min Rain = 0
KMD1 040859Z 27004KT 22/17 A2998 RMK A01 T02160174  RH  077%=      5-min Rain = 0
KMD1 040900Z 26004KT 22/17 A2998 RMK A01 T02170174  RH  076%=      5-min Rain = 0
KMD1 040901Z 26004KT 22/17 A2998 RMK A01 T02180174  RH  076%=      5-min Rain = 0
KMD1 040902Z 26004KT 22/17 A2999 RMK A01 T02190173  RH  075%=      5-min Rain = 0
KMD1 040903Z 26005KT 22/17 A2999 RMK A01 T02200174  RH  075%=      5-min Rain = 0
KMD1 040904Z 26004KT 22/17 A2999 RMK A01 T02210173  RH  074%=      5-min Rain = 0
KMD1 040905Z 27004KT 22/17 A2999 RMK A01 T02230173  RH  073%=      5-min Rain = 0
KMD1 040906Z 26004KT 23/17 A2999 RMK A01 T02250173  RH  073%=      5-min Rain = 0
KMD1 040907Z 26005KT 23/17 A2999 RMK A01 T02260173  RH  072%=      5-min Rain = 0
KMD1 040908Z 26004KT 23/17 A2999 RMK A01 T02270173  RH  072%=      5-min Rain = 0
KMD1 040909Z 26004KT 23/17 A2999 RMK A01 T02280174  RH  071%=      5-min Rain = 0
KMD1 040910Z 26005KT 23/17 A2999 RMK A01 T02290174  RH  071%=      5-min Rain = 0
KMD1 040911Z 25004KT 23/17 A2999 RMK A01 T02300174  RH  071%=      5-min Rain = 0
KMD1 040912Z 26004KT 23/17 A2999 RMK A01 T02310174  RH  070%=      5-min Rain = 0
KMD1 040913Z 25003KT 23/17 A2999 RMK A01 T02310174  RH  070%=      5-min Rain = 0
KMD1 040914Z 25003KT 23/17 A2999 RMK A01 T02310174  RH  070%=      5-min Rain = 0
KMD1 040915Z 24003KT 23/17 A2999 RMK A01 T02310174  RH  070%=      5-min Rain = 0
KMD1 040916Z 25002KT 23/17 A2999 RMK A01 T02300174  RH  070%=      5-min Rain = 0
KMD1 040917Z 24002KT 23/17 A2999 RMK A01 T02300174  RH  070%=      5-min Rain = 0
KMD1 040918Z 26002KT 23/17 A2999 RMK A01 T02310174  RH  070%=      5-min Rain = 0
KMD1 040919Z 26002KT 23/17 A2999 RMK A01 T02310174  RH  070%=      5-min Rain = 0
KMD1 040920Z 27002KT 23/17 A2999 RMK A01 T02300174  RH  070%=      5-min Rain = 0
KMD1 040921Z 28002KT 23/17 A2999 RMK A01 T02310174  RH  070%=      5-min Rain = 0
KMD1 040922Z 28002KT 23/17 A2999 RMK A01 T02300174  RH  070%=      5-min Rain = 0
KMD1 040923Z 29002KT 23/17 A2999 RMK A01 T02300174  RH  071%=      5-min Rain = 0
KMD1 040924Z 29002KT 23/17 A2999 RMK A01 T02300174  RH  071%=      5-min Rain = 0
KMD1 040925Z 29002KT 23/17 A2999 RMK A01 T02300174  RH  071%=      5-min Rain = 0
KMD1 040926Z 31002KT 23/17 A2999 RMK A01 T02300174  RH  071%=      5-min Rain = 0
KMD1 040927Z 32002KT 23/17 A2999 RMK A01 T02300174  RH  071%=      5-min Rain = 0
KMD1 040928Z 33001KT 23/17 A2999 RMK A01 T02290173  RH  071%=      5-min Rain = 0
KMD1 040929Z 32001KT 23/17 A2999 RMK A01 T02260173  RH  072%=      5-min Rain = 0
KMD1 040930Z 35001KT 22/17 A2999 RMK A01 T02240173  RH  073%=      5-min Rain = 0
KMD1 040931Z 32001KT 22/17 A2999 RMK A01 T02220174  RH  074%=      5-min Rain = 0
KMD1 040932Z 32001KT 22/17 A2999 RMK A01 T02210174  RH  074%=      5-min Rain = 0
KMD1 040933Z 33001KT 22/18 A2999 RMK A01 T02210175  RH  075%=      5-min Rain = 0
KMD1 040934Z 31001KT 22/18 A30 RMK A01 T02210175  RH  075%=      5-min Rain = 0
KMD1 040935Z 31001KT 22/17 A30 RMK A01 T02200174  RH  075%=      5-min Rain = 0
KMD1 040936Z 30000KT 22/17 A30 RMK A01 T02190173  RH  075%=      5-min Rain = 0
KMD1 040937Z 31000KT 22/17 A30 RMK A01 T02180174  RH  076%=      5-min Rain = 0
KMD1 040938Z 28000KT 22/17 A30 RMK A01 T02170174  RH  076%=      5-min Rain = 0
KMD1 040939Z 29002KT 22/18 A30 RMK A01 T02180175  RH  076%=      5-min Rain = 0
KMD1 040940Z 29002KT 22/18 A30 RMK A01 T02200175  RH  076%=      5-min Rain = 0
KMD1 040941Z 29001KT 22/18 A30 RMK A01 T02220175  RH  075%=      5-min Rain = 0
KMD1 040942Z 29000KT 22/18 A30 RMK A01 T02220175  RH  074%=      5-min Rain = 0
KMD1 040943Z 28001KT 22/18 A30 RMK A01 T02220175  RH  074%=      5-min Rain = 0
KMD1 040944Z 27000KT 22/18 A30 RMK A01 T02230175  RH  074%=      5-min Rain = 0
KMD1 040945Z 25000KT 22/17 A30 RMK A01 T02220174  RH  074%=      5-min Rain = 0
KMD1 040946Z 26000KT 22/17 A30 RMK A01 T02210174  RH  075%=      5-min Rain = 0
KMD1 040947Z 26001KT 22/17 A30 RMK A01 T02210174  RH  075%=      5-min Rain = 0
KMD1 040948Z 00000KT 22/17 A30 RMK A01 T02200173  RH  075%=      5-min Rain = 0
KMD1 040949Z 25000KT 22/17 A30 RMK A01 T02170172  RH  076%=      5-min Rain = 0
KMD1 040950Z 00000KT 22/17 A30 RMK A01 T02160172  RH  076%=      5-min Rain = 0
KMD1 040951Z 24000KT 21/17 A30 RMK A01 T02140172  RH  077%=      5-min Rain = 0
KMD1 040952Z 00000KT 21/17 A30 RMK A01 T02130173  RH  078%=      5-min Rain = 0
KMD1 040953Z 00000KT 21/17 A30 RMK A01 T02130173  RH  078%=      5-min Rain = 0
KMD1 040954Z 00000KT 21/17 A30 RMK A01 T02110172  RH  078%=      5-min Rain = 0
KMD1 040955Z 00000KT 21/17 A30 RMK A01 T02110173  RH  079%=      5-min Rain = 0
KMD1 040956Z 03000KT 21/17 A30 RMK A01 T02100174  RH  080%=      5-min Rain = 0
KMD1 040957Z 03000KT 21/17 A30 RMK A01 T02100174  RH  080%=      5-min Rain = 0
KMD1 040958Z 03001KT 21/18 A30 RMK A01 T02100175  RH  080%=      5-min Rain = 0
KMD1 040959Z 03001KT 21/18 A30 RMK A01 T02100175  RH  080%=      5-min Rain = 0
KMD1 041000Z 03002KT 21/18 A30 RMK A01 T02100175  RH  080%=      5-min Rain = 0
KMD1 041001Z 03002KT 21/18 A30 RMK A01 T02090175  RH  081%=      5-min Rain = 0
KMD1 041002Z 03002KT 21/17 A30 RMK A01 T02080174  RH  081%=      5-min Rain = 0
KMD1 041003Z 03002KT 21/17 A30 RMK A01 T02080174  RH  081%=      5-min Rain = 0
KMD1 041004Z 03001KT 21/18 A30 RMK A01 T02080175  RH  081%=      5-min Rain = 0
KMD1 041005Z 02002KT 21/17 A30 RMK A01 T02070174  RH  081%=      5-min Rain = 0
KMD1 041006Z 02002KT 21/17 A30 RMK A01 T02050172  RH  081%=      5-min Rain = 0
KMD1 041007Z 02002KT 20/17 A30 RMK A01 T02040174  RH  083%=      5-min Rain = 0
KMD1 041008Z 02002KT 20/18 A30 RMK A01 T02040175  RH  083%=      5-min Rain = 0
KMD1 041009Z 01002KT 21/18 A30 RMK A01 T02050176  RH  083%=      5-min Rain = 0
KMD1 041010Z 01001KT 21/18 A30 RMK A01 T02060176  RH  082%=      5-min Rain = 0
KMD1 041011Z 00002KT 21/18 A30 RMK A01 T02060175  RH  082%=      5-min Rain = 0
KMD1 041012Z 36001KT 21/18 A30 RMK A01 T02060175  RH  082%=      5-min Rain = 0
KMD1 041013Z 36001KT 21/18 A30 RMK A01 T02070175  RH  082%=      5-min Rain = 0
KMD1 041014Z 35000KT 21/18 A30 RMK A01 T02090177  RH  082%=      5-min Rain = 0
KMD1 041015Z 35000KT 21/18 A30 RMK A01 T02110177  RH  081%=      5-min Rain = 0
KMD1 041016Z 34000KT 21/18 A30 RMK A01 T02120177  RH  080%=      5-min Rain = 0
KMD1 041017Z 00000KT 21/18 A30 RMK A01 T02140176  RH  079%=      5-min Rain = 0
KMD1 041018Z 00000KT 21/18 A30 RMK A01 T02140176  RH  079%=      5-min Rain = 0
KMD1 041019Z 00000KT 21/18 A30 RMK A01 T02140176  RH  079%=      5-min Rain = 0
KMD1 041020Z 00000KT 21/18 A30 RMK A01 T02140176  RH  079%=      5-min Rain = 0
KMD1 041021Z 00000KT 21/18 A30 RMK A01 T02140176  RH  079%=      5-min Rain = 0
KMD1 041022Z 00000KT 21/18 A30 RMK A01 T02140176  RH  079%=      5-min Rain = 0
KMD1 041023Z 00000KT 21/18 A30 RMK A01 T02140176  RH  079%=      5-min Rain = 0
KMD1 041024Z 00000KT 21/18 A30 RMK A01 T02140176  RH  079%=      5-min Rain = 0
KMD1 041025Z 00000KT 21/18 A30 RMK A01 T02140176  RH  079%=      5-min Rain = 0
KMD1 041026Z 00000KT 22/18 A30 RMK A01 T02150176  RH  079%=      5-min Rain = 0
KMD1 041027Z 00000KT 22/18 A30 RMK A01 T02150175  RH  078%=      5-min Rain = 0
KMD1 041028Z 03001KT 21/17 A3001 RMK A01 T02120173  RH  078%=      5-min Rain = 0
KMD1 041029Z 03001KT 21/17 A3001 RMK A01 T02090173  RH  080%=      5-min Rain = 0
KMD1 041030Z 04002KT 21/17 A3001 RMK A01 T02070173  RH  081%=      5-min Rain = 0
KMD1 041031Z 03003KT 20/17 A3001 RMK A01 T02040172  RH  082%=      5-min Rain = 0
KMD1 041032Z 04003KT 20/17 A3001 RMK A01 T02030174  RH  084%=      5-min Rain = 0
KMD1 041033Z 03003KT 20/18 A3001 RMK A01 T02010175  RH  085%=      5-min Rain = 0
KMD1 041034Z 05002KT 20/18 A3001 RMK A01 T01990175  RH  086%=      5-min Rain = 0
KMD1 041035Z 05002KT 20/18 A3001 RMK A01 T01980176  RH  087%=      5-min Rain = 0
KMD1 041036Z 07002KT 20/18 A3001 RMK A01 T01980177  RH  088%=      5-min Rain = 0
KMD1 041037Z 07002KT 20/18 A3001 RMK A01 T01980176  RH  088%=      5-min Rain = 0
KMD1 041038Z 08002KT 20/18 A3001 RMK A01 T01970176  RH  087%=      5-min Rain = 0
KMD1 041039Z 08001KT 20/18 A3001 RMK A01 T01970176  RH  087%=      5-min Rain = 0
KMD1 041040Z 09002KT 20/18 A3001 RMK A01 T01970176  RH  087%=      5-min Rain = 0
KMD1 041041Z 09002KT 20/18 A3001 RMK A01 T01970176  RH  087%=      5-min Rain = 0
KMD1 041042Z 09002KT 20/18 A3002 RMK A01 T01970176  RH  088%=      5-min Rain = 0
KMD1 041043Z 09002KT 20/18 A3002 RMK A01 T01970176  RH  088%=      5-min Rain = 0
KMD1 041044Z 09002KT 20/18 A3002 RMK A01 T01980176  RH  087%=      5-min Rain = 0
KMD1 041045Z 09002KT 20/18 A3002 RMK A01 T01980176  RH  087%=      5-min Rain = 0
KMD1 041046Z 09002KT 20/18 A3002 RMK A01 T01980176  RH  087%=      5-min Rain = 0
KMD1 041047Z 10002KT 20/18 A3002 RMK A01 T01980176  RH  087%=      5-min Rain = 0
KMD1 041048Z 09002KT 20/18 A3002 RMK A01 T01980176  RH  087%=      5-min Rain = 0
KMD1 041049Z 08001KT 20/18 A3001 RMK A01 T01990176  RH  087%=      5-min Rain = 0
KMD1 041050Z 07001KT 20/18 A3001 RMK A01 T01990176  RH  087%=      5-min Rain = 0
KMD1 041051Z 04001KT 20/18 A3001 RMK A01 T01990176  RH  086%=      5-min Rain = 0
KMD1 041052Z 04000KT 20/18 A3001 RMK A01 T01990175  RH  086%=      5-min Rain = 0
KMD1 041053Z 04001KT 20/18 A3001 RMK A01 T01990176  RH  086%=      5-min Rain = 0
KMD1 041054Z 04002KT 20/18 A3002 RMK A01 T02000176  RH  086%=      5-min Rain = 0
KMD1 041055Z 05001KT 20/18 A3002 RMK A01 T02010176  RH  086%=      5-min Rain = 0
KMD1 041056Z 06001KT 20/18 A3002 RMK A01 T02010176  RH  085%=      5-min Rain = 0
KMD1 041057Z 05001KT 20/18 A3002 RMK A01 T02010175  RH  085%=      5-min Rain = 0
KMD1 041058Z 05001KT 20/18 A3002 RMK A01 T02010176  RH  085%=      5-min Rain = 0
KMD1 041059Z 04001KT 20/18 A3002 RMK A01 T02010175  RH  085%=      5-min Rain = 0
KMD1 041100Z 03001KT 20/18 A3002 RMK A01 T02010175  RH  085%=      5-min Rain = 0
KMD1 041101Z 03001KT 20/17 A3002 RMK A01 T02000174  RH  085%=      5-min Rain = 0
KMD1 041102Z 04001KT 20/17 A3001 RMK A01 T02000174  RH  085%=      5-min Rain = 0
KMD1 041103Z 04001KT 20/18 A3001 RMK A01 T02000175  RH  086%=      5-min Rain = 0
KMD1 041104Z 03002KT 20/18 A3001 RMK A01 T01990175  RH  086%=      5-min Rain = 0
KMD1 041105Z 04002KT 20/18 A3001 RMK A01 T01990175  RH  086%=      5-min Rain = 0
KMD1 041106Z 05002KT 20/18 A3001 RMK A01 T01990175  RH  086%=      5-min Rain = 0
KMD1 041107Z 05002KT 20/18 A3001 RMK A01 T01990175  RH  086%=      5-min Rain = 0
KMD1 041108Z 04002KT 20/18 A3001 RMK A01 T01990175  RH  086%=      5-min Rain = 0
KMD1 041109Z 04002KT 20/18 A3001 RMK A01 T01980176  RH  087%=      5-min Rain = 0
KMD1 041110Z 04002KT 20/18 A3001 RMK A01 T01980176  RH  087%=      5-min Rain = 0
KMD1 041111Z 04002KT 20/18 A3002 RMK A01 T01970177  RH  088%=      5-min Rain = 0
KMD1 041112Z 04002KT 20/18 A3002 RMK A01 T01960177  RH  089%=      5-min Rain = 0
KMD1 041113Z 04002KT 20/18 A3002 RMK A01 T01950177  RH  089%=      5-min Rain = 0
KMD1 041114Z 05002KT 19/18 A3002 RMK A01 T01940178  RH  090%=      5-min Rain = 0
KMD1 041115Z 04002KT 19/18 A3002 RMK A01 T01940178  RH  090%=      5-min Rain = 0
KMD1 041116Z 05002KT 19/18 A3002 RMK A01 T01930178  RH  091%=      5-min Rain = 0
KMD1 041117Z 06002KT 19/18 A3002 RMK A01 T01930178  RH  091%=      5-min Rain = 0
KMD1 041118Z 05002KT 19/18 A3002 RMK A01 T01940177  RH  090%=      5-min Rain = 0
KMD1 041119Z 04002KT 19/18 A3002 RMK A01 T01940177  RH  089%=      5-min Rain = 0
KMD1 041120Z 04001KT 19/18 A3002 RMK A01 T01940176  RH  089%=      5-min Rain = 0
KMD1 041121Z 04001KT 19/18 A3002 RMK A01 T01940175  RH  089%=      5-min Rain = 0
KMD1 041122Z 04001KT 19/18 A3002 RMK A01 T01940175  RH  089%=      5-min Rain = 0
KMD1 041123Z 04002KT 20/18 A3002 RMK A01 T01950175  RH  088%=      5-min Rain = 0
KMD1 041124Z 04002KT 20/18 A3002 RMK A01 T01950175  RH  088%=      5-min Rain = 0
KMD1 041125Z 04002KT 20/17 A3002 RMK A01 T01950174  RH  088%=      5-min Rain = 0
KMD1 041126Z 04002KT 20/17 A3002 RMK A01 T01950174  RH  088%=      5-min Rain = 0
KMD1 041127Z 04003KT 20/18 A3002 RMK A01 T01950175  RH  088%=      5-min Rain = 0
KMD1 041128Z 04003KT 20/18 A3002 RMK A01 T01950175  RH  088%=      5-min Rain = 0
KMD1 041129Z 03003KT 20/18 A3002 RMK A01 T01950175  RH  088%=      5-min Rain = 0
KMD1 041130Z 03003KT 20/18 A3003 RMK A01 T01950175  RH  088%=      5-min Rain = 0
KMD1 041131Z 02003KT 20/18 A3003 RMK A01 T01950175  RH  088%=      5-min Rain = 0
KMD1 041132Z 01003KT 20/18 A3003 RMK A01 T01950175  RH  088%=      5-min Rain = 0
KMD1 041133Z 01003KT 19/18 A3003 RMK A01 T01940175  RH  088%=      5-min Rain = 0
KMD1 041134Z 02003KT 19/18 A3002 RMK A01 T01940175  RH  089%=      5-min Rain = 0
KMD1 041135Z 02003KT 19/18 A3002 RMK A01 T01940175  RH  088%=      5-min Rain = 0
KMD1 041136Z 02002KT 20/18 A3002 RMK A01 T01950175  RH  088%=      5-min Rain = 0
KMD1 041137Z 03002KT 20/18 A3002 RMK A01 T01950175  RH  089%=      5-min Rain = 0
KMD1 041138Z 03002KT 20/18 A3002 RMK A01 T01960177  RH  089%=      5-min Rain = 0
KMD1 041139Z 02002KT 20/18 A3002 RMK A01 T01970177  RH  088%=      5-min Rain = 0
KMD1 041140Z 01002KT 20/18 A3002 RMK A01 T01990179  RH  088%=      5-min Rain = 0
KMD1 041141Z 02001KT 20/18 A3002 RMK A01 T02000179  RH  088%=      5-min Rain = 0
KMD1 041142Z 00001KT 20/18 A3002 RMK A01 T02000179  RH  087%=      5-min Rain = 0
KMD1 041143Z 01001KT 20/18 A3002 RMK A01 T02010179  RH  087%=      5-min Rain = 0
KMD1 041144Z 02001KT 20/18 A3002 RMK A01 T02020180  RH  087%=      5-min Rain = 0
KMD1 041145Z 02001KT 20/18 A3002 RMK A01 T02030180  RH  087%=      5-min Rain = 0
KMD1 041146Z 01001KT 20/18 A3002 RMK A01 T02030179  RH  086%=      5-min Rain = 0
KMD1 041147Z 00000KT 20/18 A3002 RMK A01 T02020179  RH  086%=      5-min Rain = 0
KMD1 041148Z 00000KT 20/18 A3002 RMK A01 T02020177  RH  085%=      5-min Rain = 0
KMD1 041149Z 00000KT 20/18 A3002 RMK A01 T02010177  RH  086%=      5-min Rain = 0
KMD1 041150Z 00000KT 20/18 A3002 RMK A01 T02010177  RH  086%=      5-min Rain = 0
KMD1 041151Z 00000KT 20/18 A3002 RMK A01 T02000176  RH  086%=      5-min Rain = 0
KMD1 041152Z 35001KT 20/18 A3002 RMK A01 T01990176  RH  086%=      5-min Rain = 0
KMD1 041153Z 35001KT 20/18 A3002 RMK A01 T01980175  RH  087%=      5-min Rain = 0
KMD1 041154Z 33002KT 20/18 A3002 RMK A01 T01970175  RH  087%=      5-min Rain = 0
KMD1 041155Z 32001KT 20/18 A3002 RMK A01 T01960175  RH  088%=      5-min Rain = 0
KMD1 041156Z 30001KT 20/18 A3002 RMK A01 T01960176  RH  088%=      5-min Rain = 0
KMD1 041157Z 30001KT 20/18 A3002 RMK A01 T01950176  RH  088%=      5-min Rain = 0
KMD1 041158Z 28001KT 20/18 A3002 RMK A01 T01950176  RH  088%=      5-min Rain = 0
KMD1 041159Z 30001KT 20/18 A3002 RMK A01 T01950176  RH  089%=      5-min Rain = 0
KMD1 041200Z 30000KT 20/18 A3002 RMK A01 T01950176  RH  089%=      5-min Rain = 0
KMD1 041201Z 35000KT 20/18 A3002 RMK A01 T01950176  RH  089%=      5-min Rain = 0
KMD1 041202Z 01002KT 20/18 A3002 RMK A01 T01960177  RH  089%=      5-min Rain = 0
KMD1 041203Z 33001KT 20/18 A3002 RMK A01 T01960177  RH  089%=      5-min Rain = 0
KMD1 041204Z 21001KT 20/18 A3002 RMK A01 T01970177  RH  088%=      5-min Rain = 0
KMD1 041205Z 29001KT 20/18 A3002 RMK A01 T01970178  RH  089%=      5-min Rain = 0
KMD1 041206Z 17001KT 20/18 A3002 RMK A01 T01980178  RH  088%=      5-min Rain = 0
KMD1 041207Z 17000KT 20/18 A3002 RMK A01 T01990178  RH  088%=      5-min Rain = 0
KMD1 041208Z 17001KT 20/18 A3002 RMK A01 T01990177  RH  087%=      5-min Rain = 0
KMD1 041209Z 19000KT 20/18 A3003 RMK A01 T01980176  RH  087%=      5-min Rain = 0
KMD1 041210Z 19000KT 20/18 A3003 RMK A01 T01980176  RH  087%=      5-min Rain = 0
KMD1 041211Z 20000KT 20/18 A3003 RMK A01 T01980176  RH  088%=      5-min Rain = 0
KMD1 041212Z 18001KT 20/18 A3003 RMK A01 T01970176  RH  088%=      5-min Rain = 0
KMD1 041213Z 16001KT 20/18 A3003 RMK A01 T01970177  RH  088%=      5-min Rain = 0
KMD1 041214Z 21002KT 20/18 A3003 RMK A01 T01970177  RH  088%=      5-min Rain = 0
KMD1 041215Z 23001KT 20/18 A3003 RMK A01 T01970178  RH  089%=      5-min Rain = 0
KMD1 041216Z 28000KT 20/18 A3003 RMK A01 T01980180  RH  090%=      5-min Rain = 0
KMD1 041217Z 27001KT 20/18 A3003 RMK A01 T01980180  RH  089%=      5-min Rain = 0
KMD1 041218Z 25000KT 20/18 A3003 RMK A01 T01980180  RH  089%=      5-min Rain = 0
KMD1 041219Z 27000KT 20/18 A3003 RMK A01 T01990181  RH  089%=      5-min Rain = 0
KMD1 041220Z 25001KT 20/18 A3003 RMK A01 T02000181  RH  089%=      5-min Rain = 0
KMD1 041221Z 23000KT 20/18 A3003 RMK A01 T02010182  RH  089%=      5-min Rain = 0
KMD1 041222Z 24000KT 20/18 A3003 RMK A01 T02020182  RH  088%=      5-min Rain = 0
KMD1 041223Z 00000KT 20/18 A3003 RMK A01 T02030183  RH  088%=      5-min Rain = 0
KMD1 041224Z 00000KT 20/18 A3003 RMK A01 T02030182  RH  088%=      5-min Rain = 0
KMD1 041225Z 00000KT 20/18 A3003 RMK A01 T02040183  RH  088%=      5-min Rain = 0
KMD1 041226Z 00000KT 21/18 A3003 RMK A01 T02050184  RH  088%=      5-min Rain = 0
KMD1 041227Z 00000KT 21/18 A3003 RMK A01 T02060184  RH  087%=      5-min Rain = 0
KMD1 041228Z 00000KT 21/19 A3003 RMK A01 T02080185  RH  087%=      5-min Rain = 0
KMD1 041229Z 00000KT 21/19 A3003 RMK A01 T02100186  RH  086%=      5-min Rain = 0
KMD1 041230Z 00000KT 21/19 A3003 RMK A01 T02110186  RH  086%=      5-min Rain = 0
KMD1 041231Z 00000KT 21/19 A3003 RMK A01 T02120186  RH  085%=      5-min Rain = 0
KMD1 041232Z 25000KT 21/18 A3003 RMK A01 T02130184  RH  084%=      5-min Rain = 0
KMD1 041233Z 00000KT 21/18 A3003 RMK A01 T02130184  RH  084%=      5-min Rain = 0
KMD1 041234Z 32000KT 21/19 A3003 RMK A01 T02130185  RH  084%=      5-min Rain = 0
KMD1 041235Z 30001KT 21/18 A3003 RMK A01 T02130184  RH  083%=      5-min Rain = 0
KMD1 041236Z 31001KT 21/18 A3003 RMK A01 T02130184  RH  083%=      5-min Rain = 0
KMD1 041237Z 30002KT 21/18 A3003 RMK A01 T02130184  RH  083%=      5-min Rain = 0
KMD1 041238Z 29002KT 21/18 A3003 RMK A01 T02130183  RH  083%=      5-min Rain = 0
KMD1 041239Z 29001KT 21/18 A3003 RMK A01 T02120183  RH  084%=      5-min Rain = 0
KMD1 041240Z 31001KT 21/18 A3003 RMK A01 T02120184  RH  084%=      5-min Rain = 0
KMD1 041241Z 30001KT 21/19 A3003 RMK A01 T02130185  RH  084%=      5-min Rain = 0
KMD1 041242Z 31000KT 21/18 A3003 RMK A01 T02130184  RH  084%=      5-min Rain = 0
KMD1 041243Z 00000KT 21/19 A3003 RMK A01 T02130185  RH  084%=      5-min Rain = 0
KMD1 041244Z 00000KT 21/19 A3003 RMK A01 T02140185  RH  084%=      5-min Rain = 0
KMD1 041245Z 35000KT 22/19 A3003 RMK A01 T02150185  RH  083%=      5-min Rain = 0
KMD1 041246Z 35000KT 22/19 A3003 RMK A01 T02170185  RH  082%=      5-min Rain = 0
KMD1 041247Z 00000KT 22/18 A3003 RMK A01 T02180184  RH  081%=      5-min Rain = 0
KMD1 041248Z 00000KT 22/18 A3003 RMK A01 T02190183  RH  080%=      5-min Rain = 0
KMD1 041249Z 01000KT 22/18 A3003 RMK A01 T02200184  RH  080%=      5-min Rain = 0
KMD1 041250Z 01001KT 22/19 A3003 RMK A01 T02220185  RH  079%=      5-min Rain = 0
KMD1 041251Z 01001KT 22/18 A3003 RMK A01 T02230184  RH  078%=      5-min Rain = 0
KMD1 041252Z 00001KT 22/18 A3003 RMK A01 T02240183  RH  078%=      5-min Rain = 0
KMD1 041253Z 36001KT 22/18 A3003 RMK A01 T02240183  RH  077%=      5-min Rain = 0
KMD1 041254Z 35001KT 23/18 A3003 RMK A01 T02250183  RH  077%=      5-min Rain = 0
KMD1 041255Z 34001KT 23/18 A3003 RMK A01 T02250184  RH  078%=      5-min Rain = 0
KMD1 041256Z 35000KT 23/19 A3003 RMK A01 T02260185  RH  078%=      5-min Rain = 0
KMD1 041257Z 35001KT 23/19 A3003 RMK A01 T02270185  RH  077%=      5-min Rain = 0
KMD1 041258Z 34000KT 23/19 A3003 RMK A01 T02280186  RH  077%=      5-min Rain = 0
KMD1 041259Z 31000KT 23/19 A3003 RMK A01 T02290188  RH  077%=      5-min Rain = 0
KMD1 041300Z 00000KT 23/19 A3004 RMK A01 T02310187  RH  077%=      5-min Rain = 0
KMD1 041301Z 35000KT 23/19 A3004 RMK A01 T02320188  RH  076%=      5-min Rain = 0
KMD1 041302Z 32000KT 23/19 A3004 RMK A01 T02330189  RH  076%=      5-min Rain = 0
KMD1 041303Z 33000KT 24/19 A3004 RMK A01 T02350191  RH  076%=      5-min Rain = 0
KMD1 041304Z 03000KT 24/19 A3004 RMK A01 T02360191  RH  076%=      5-min Rain = 0
KMD1 041305Z 35000KT 24/19 A3004 RMK A01 T02380194  RH  076%=      5-min Rain = 0
KMD1 041306Z 35001KT 24/19 A3004 RMK A01 T02400193  RH  075%=      5-min Rain = 0
KMD1 041307Z 02000KT 24/19 A3004 RMK A01 T02420194  RH  074%=      5-min Rain = 0
KMD1 041308Z 00000KT 25/20 A3004 RMK A01 T02450195  RH  074%=      5-min Rain = 0
KMD1 041309Z 08000KT 25/19 A3004 RMK A01 T02460194  RH  072%=      5-min Rain = 0
KMD1 041310Z 00000KT 25/20 A3004 RMK A01 T02480195  RH  072%=      5-min Rain = 0
KMD1 041311Z 14001KT 25/19 A3004 RMK A01 T02490194  RH  072%=      5-min Rain = 0
KMD1 041312Z 14001KT 25/20 A3004 RMK A01 T02500195  RH  072%=      5-min Rain = 0
KMD1 041313Z 13001KT 25/20 A3004 RMK A01 T02500196  RH  072%=      5-min Rain = 0
KMD1 041314Z 16001KT 25/20 A3004 RMK A01 T02500196  RH  072%=      5-min Rain = 0
KMD1 041315Z 17002KT 25/20 A3004 RMK A01 T02490198  RH  073%=      5-min Rain = 0
KMD1 041316Z 17002KT 25/20 A3004 RMK A01 T02490197  RH  073%=      5-min Rain = 0
KMD1 041317Z 19002KT 25/20 A3004 RMK A01 T02480200  RH  074%=      5-min Rain = 0
KMD1 041318Z 22002KT 25/20 A3004 RMK A01 T02480199  RH  074%=      5-min Rain = 0
KMD1 041319Z 22002KT 25/20 A3004 RMK A01 T02460198  RH  075%=      5-min Rain = 0
KMD1 041320Z 23002KT 25/20 A3004 RMK A01 T02450198  RH  075%=      5-min Rain = 0
KMD1 041321Z 22003KT 24/20 A3004 RMK A01 T02440198  RH  076%=      5-min Rain = 0
KMD1 041322Z 21002KT 24/20 A3004 RMK A01 T02430199  RH  076%=      5-min Rain = 0
KMD1 041323Z 20003KT 24/20 A3004 RMK A01 T02430199  RH  076%=      5-min Rain = 0
KMD1 041324Z 20003KT 24/20 A3004 RMK A01 T02430199  RH  076%=      5-min Rain = 0
KMD1 041325Z 20002KT 24/20 A3004 RMK A01 T02420200  RH  077%=      5-min Rain = 0
KMD1 041326Z 20003KT 24/20 A3003 RMK A01 T02430200  RH  077%=      5-min Rain = 0
KMD1 041327Z 20002KT 24/20 A3003 RMK A01 T02440200  RH  076%=      5-min Rain = 0
KMD1 041328Z 20003KT 25/20 A3003 RMK A01 T02450200  RH  076%=      5-min Rain = 0
KMD1 041329Z 20002KT 25/20 A3003 RMK A01 T02450200  RH  076%=      5-min Rain = 0
KMD1 041330Z 20002KT 25/20 A3003 RMK A01 T02450202  RH  077%=      5-min Rain = 0
KMD1 041331Z 20002KT 25/20 A3003 RMK A01 T02460202  RH  076%=      5-min Rain = 0
KMD1 041332Z 20002KT 25/20 A3003 RMK A01 T02470201  RH  076%=      5-min Rain = 0
KMD1 041333Z 20003KT 25/20 A3003 RMK A01 T02470202  RH  076%=      5-min Rain = 0
KMD1 041334Z 19002KT 25/20 A3003 RMK A01 T02470203  RH  077%=      5-min Rain = 0
KMD1 041335Z 23002KT 25/20 A3003 RMK A01 T02470204  RH  077%=      5-min Rain = 0
KMD1 041336Z 22002KT 25/20 A3003 RMK A01 T02490204  RH  076%=      5-min Rain = 0
KMD1 041337Z 21003KT 25/21 A3003 RMK A01 T02500205  RH  076%=      5-min Rain = 0
KMD1 041338Z 22004KT 25/21 A3003 RMK A01 T02510207  RH  076%=      5-min Rain = 0
KMD1 041339Z 22005KT 25/21 A3003 RMK A01 T02530209  RH  076%=      5-min Rain = 0
KMD1 041340Z 22007KT 26/21 A3003 RMK A01 T02550213  RH  077%=      5-min Rain = 0
KMD1 041341Z 23007KT 26/22 A3003 RMK A01 T02580215  RH  077%=      5-min Rain = 0
KMD1 041342Z 21007KT 26/22 A3003 RMK A01 T02600215  RH  076%=      5-min Rain = 0
KMD1 041343Z 21006KT 26/22 A3003 RMK A01 T02620217  RH  076%=      5-min Rain = 0
KMD1 041344Z 21005KT 26/22 A3003 RMK A01 T02640217  RH  075%=      5-min Rain = 0
KMD1 041345Z 22006KT 27/22 A3003 RMK A01 T02660217  RH  075%=      5-min Rain = 0
KMD1 041346Z 22007KT 27/22 A3003 RMK A01 T02660218  RH  075%=      5-min Rain = 0
KMD1 041347Z 22005KT 27/22 A3003 RMK A01 T02670217  RH  074%=      5-min Rain = 0
KMD1 041348Z 22004KT 27/22 A3003 RMK A01 T02670218  RH  074%=      5-min Rain = 0
KMD1 041349Z 22007KT 27/22 A3003 RMK A01 T02680217  RH  074%=      5-min Rain = 0
KMD1 041350Z 23009KT 27/22 A3003 RMK A01 T02680217  RH  073%=      5-min Rain = 0
KMD1 041351Z 23009KT 27/22 A3003 RMK A01 T02680216  RH  073%=      5-min Rain = 0
KMD1 041352Z 22008KT 27/22 A3003 RMK A01 T02680216  RH  073%=      5-min Rain = 0
KMD1 041353Z 22007KT 27/22 A3003 RMK A01 T02690217  RH  073%=      5-min Rain = 0
KMD1 041354Z 21008KT 27/22 A3003 RMK A01 T02690216  RH  073%=      5-min Rain = 0
KMD1 041355Z 23009KT 27/22 A3003 RMK A01 T02690216  RH  072%=      5-min Rain = 0
KMD1 041356Z 23007KT 27/22 A3003 RMK A01 T02700216  RH  072%=      5-min Rain = 0
KMD1 041357Z 22007KT 27/22 A3003 RMK A01 T02700216  RH  072%=      5-min Rain = 0
KMD1 041358Z 23007KT 27/22 A3003 RMK A01 T02700217  RH  072%=      5-min Rain = 0
KMD1 041359Z 21009KT 27/22 A3003 RMK A01 T02720216  RH  072%=      5-min Rain = 0
KMD1 041400Z 21007KT 27/22 A3003 RMK A01 T02720215  RH  071%=      5-min Rain = 0
KMD1 041401Z 21008KT 27/21 A3003 RMK A01 T02720214  RH  070%=      5-min Rain = 0
KMD1 041402Z 21009KT 27/21 A3003 RMK A01 T02720214  RH  070%=      5-min Rain = 0
KMD1 041403Z 21009KT 27/21 A3003 RMK A01 T02730214  RH  070%=      5-min Rain = 0
KMD1 041404Z 21009KT 27/21 A3003 RMK A01 T02730214  RH  070%=      5-min Rain = 0
KMD1 041405Z 21008KT 27/21 A3003 RMK A01 T02740214  RH  070%=      5-min Rain = 0
KMD1 041406Z 21008KT 28/22 A3003 RMK A01 T02750215  RH  070%=      5-min Rain = 0
KMD1 041407Z 22007KT 28/22 A3003 RMK A01 T02750215  RH  070%=      5-min Rain = 0
KMD1 041408Z 22007KT 28/21 A3003 RMK A01 T02750214  RH  069%=      5-min Rain = 0
KMD1 041409Z 22008KT 27/22 A3003 RMK A01 T02740215  RH  070%=      5-min Rain = 0
KMD1 041410Z 21007KT 28/22 A3003 RMK A01 T02750215  RH  070%=      5-min Rain = 0
KMD1 041411Z 21007KT 28/22 A3003 RMK A01 T02760215  RH  069%=      5-min Rain = 0
KMD1 041412Z 20006KT 28/22 A3003 RMK A01 T02770215  RH  069%=      5-min Rain = 0
KMD1 041413Z 23008KT 28/22 A3003 RMK A01 T02780216  RH  069%=      5-min Rain = 0
KMD1 041414Z 22011KT 28/21 A3003 RMK A01 T02800214  RH  067%=      5-min Rain = 0
KMD1 041415Z 23011KT 28/21 A3003 RMK A01 T02800214  RH  067%=      5-min Rain = 0
KMD1 041416Z 22009KT 28/21 A3003 RMK A01 T02790214  RH  068%=      5-min Rain = 0
KMD1 041417Z 22011KT 28/21 A3003 RMK A01 T02790213  RH  067%=      5-min Rain = 0
KMD1 041418Z 22008G13KT 28/21 A3003 RMK A01 T02780213  RH  068%=      5-min Rain = 0
KMD1 041419Z 22010KT 28/21 A3003 RMK A01 T02780213  RH  068%=      5-min Rain = 0
KMD1 041420Z 22010KT 28/21 A3003 RMK A01 T02790212  RH  067%=      5-min Rain = 0
KMD1 041421Z 22007KT 28/21 A3003 RMK A01 T02790213  RH  067%=      5-min Rain = 0
KMD1 041422Z 22007KT 28/21 A3003 RMK A01 T02790212  RH  067%=      5-min Rain = 0
KMD1 041423Z 22006KT 28/21 A3003 RMK A01 T02790214  RH  067%=      5-min Rain = 0
KMD1 041424Z 21007KT 28/22 A3002 RMK A01 T02800215  RH  068%=      5-min Rain = 0
KMD1 041425Z 22008KT 28/21 A3002 RMK A01 T02810214  RH  067%=      5-min Rain = 0
KMD1 041426Z 20006KT 28/21 A3002 RMK A01 T02810214  RH  067%=      5-min Rain = 0
KMD1 041427Z 22007KT 28/22 A3003 RMK A01 T02830215  RH  067%=      5-min Rain = 0
KMD1 041428Z 21010KT 28/21 A3003 RMK A01 T02840213  RH  065%=      5-min Rain = 0
KMD1 041429Z 22009KT 28/21 A3003 RMK A01 T02840212  RH  065%=      5-min Rain = 0
KMD1 041430Z 23009KT 28/21 A3003 RMK A01 T02820214  RH  066%=      5-min Rain = 0
KMD1 041431Z 23007KT 28/21 A3003 RMK A01 T02840214  RH  066%=      5-min Rain = 0
KMD1 041432Z 23010KT 29/21 A3003 RMK A01 T02850212  RH  065%=      5-min Rain = 0
KMD1 041433Z 23009KT 29/21 A3003 RMK A01 T02850212  RH  065%=      5-min Rain = 0
KMD1 041434Z 23008KT 28/21 A3002 RMK A01 T02840212  RH  065%=      5-min Rain = 0
KMD1 041435Z 23009KT 29/21 A3002 RMK A01 T02850213  RH  065%=      5-min Rain = 0
KMD1 041436Z 24007KT 29/21 A3002 RMK A01 T02860212  RH  064%=      5-min Rain = 0
KMD1 041437Z 23009KT 29/21 A3002 RMK A01 T02860211  RH  064%=      5-min Rain = 0
KMD1 041438Z 22006KT 29/21 A3002 RMK A01 T02860213  RH  065%=      5-min Rain = 0
KMD1 041439Z 20006KT 29/21 A3002 RMK A01 T02880214  RH  064%=      5-min Rain = 0
KMD1 041440Z 22006KT 29/21 A3002 RMK A01 T02890214  RH  064%=      5-min Rain = 0
KMD1 041441Z 23008KT 29/21 A3002 RMK A01 T02910213  RH  063%=      5-min Rain = 0
KMD1 041442Z 24010KT 29/21 A3002 RMK A01 T02910210  RH  062%=      5-min Rain = 0
KMD1 041443Z 24010KT 29/21 A3002 RMK A01 T02900210  RH  062%=      5-min Rain = 0
KMD1 041444Z 23008KT 29/21 A3002 RMK A01 T02890212  RH  063%=      5-min Rain = 0
KMD1 041445Z 22010KT 29/21 A3002 RMK A01 T02890210  RH  062%=      5-min Rain = 0
KMD1 041446Z 22008KT 29/21 A3002 RMK A01 T02900209  RH  062%=      5-min Rain = 0
KMD1 041447Z 24009KT 29/21 A3002 RMK A01 T02900209  RH  062%=      5-min Rain = 0
KMD1 041448Z 22011KT 29/21 A3002 RMK A01 T02910208  RH  061%=      5-min Rain = 0
KMD1 041449Z 22008KT 29/21 A3002 RMK A01 T02900209  RH  061%=      5-min Rain = 0
KMD1 041450Z 22007KT 29/21 A3002 RMK A01 T02910209  RH  062%=      5-min Rain = 0
KMD1 041451Z 22008KT 29/21 A3002 RMK A01 T02920209  RH  061%=      5-min Rain = 0
KMD1 041452Z 24009KT 29/21 A3002 RMK A01 T02930209  RH  060%=      5-min Rain = 0
KMD1 041453Z 25008KT 29/21 A3002 RMK A01 T02920208  RH  060%=      5-min Rain = 0
KMD1 041454Z 25007KT 29/21 A3002 RMK A01 T02930209  RH  060%=      5-min Rain = 0
KMD1 041455Z 23007KT 30/21 A3003 RMK A01 T02950211  RH  061%=      5-min Rain = 0
KMD1 041456Z 22009KT 30/21 A3003 RMK A01 T02960209  RH  059%=      5-min Rain = 0
KMD1 041457Z 23009KT 30/21 A3003 RMK A01 T02960208  RH  059%=      5-min Rain = 0
KMD1 041458Z 23008KT 30/21 A3003 RMK A01 T02960209  RH  060%=      5-min Rain = 0
KMD1 041459Z 21006KT 30/21 A3003 RMK A01 T02960209  RH  060%=      5-min Rain = 0
KMD1 041500Z 22007KT 30/21 A3003 RMK A01 T02970208  RH  059%=      5-min Rain = 0
KMD1 041501Z 22007KT 30/21 A3003 RMK A01 T02970210  RH  059%=      5-min Rain = 0
KMD1 041502Z 24006KT 30/21 A3003 RMK A01 T02970209  RH  059%=      5-min Rain = 0
KMD1 041503Z 24006KT 30/21 A3003 RMK A01 T02970209  RH  059%=      5-min Rain = 0
KMD1 041504Z 23005KT 30/21 A3003 RMK A01 T02970211  RH  060%=      5-min Rain = 0
KMD1 041505Z 23006KT 30/21 A3003 RMK A01 T02990211  RH  059%=      5-min Rain = 0
KMD1 041506Z 21005KT 30/21 A3003 RMK A01 T03000210  RH  059%=      5-min Rain = 0
KMD1 041507Z 21006G11KT 30/21 A3003 RMK A01 T03010211  RH  059%=      5-min Rain = 0
KMD1 041508Z 20007KT 30/21 A3003 RMK A01 T03020210  RH  058%=      5-min Rain = 0
KMD1 041509Z 22005KT 30/21 A3003 RMK A01 T03040212  RH  058%=      5-min Rain = 0
KMD1 041510Z 22009KT 31/21 A3003 RMK A01 T03060210  RH  057%=      5-min Rain = 0
KMD1 041511Z 24008KT 31/21 A3003 RMK A01 T03050208  RH  056%=      5-min Rain = 0
KMD1 041512Z 24007KT 30/21 A3003 RMK A01 T03030207  RH  056%=      5-min Rain = 0
KMD1 041513Z 24007KT 30/21 A3003 RMK A01 T03020207  RH  057%=      5-min Rain = 0
KMD1 041514Z 24004KT 30/21 A3003 RMK A01 T03020208  RH  057%=      5-min Rain = 0
KMD1 041515Z 23005KT 30/21 A3003 RMK A01 T03020209  RH  057%=      5-min Rain = 0
KMD1 041516Z 24008KT 30/21 A3003 RMK A01 T03040208  RH  056%=      5-min Rain = 0
KMD1 041517Z 23006KT 31/21 A3003 RMK A01 T03050210  RH  057%=      5-min Rain = 0
KMD1 041518Z 22006KT 31/21 A3003 RMK A01 T03080211  RH  056%=      5-min Rain = 0
KMD1 041519Z 21005KT 31/21 A3003 RMK A01 T03090209  RH  055%=      5-min Rain = 0
KMD1 041520Z 20007KT 31/21 A3003 RMK A01 T03080208  RH  055%=      5-min Rain = 0
KMD1 041521Z 23006KT 31/21 A3003 RMK A01 T03070207  RH  055%=      5-min Rain = 0
KMD1 041522Z 23007KT 31/21 A3003 RMK A01 T03080207  RH  055%=      5-min Rain = 0
KMD1 041523Z 24007KT 31/21 A3003 RMK A01 T03080207  RH  055%=      5-min Rain = 0
KMD1 041524Z 21006KT 31/21 A3003 RMK A01 T03070208  RH  055%=      5-min Rain = 0
KMD1 041525Z 21005KT 31/21 A3003 RMK A01 T03090210  RH  056%=      5-min Rain = 0
KMD1 041526Z 22008KT 31/21 A3003 RMK A01 T03110208  RH  054%=      5-min Rain = 0
KMD1 041527Z 23006KT 31/21 A3003 RMK A01 T03110207  RH  054%=      5-min Rain = 0
KMD1 041528Z 21005KT 31/21 A3003 RMK A01 T03090210  RH  056%=      5-min Rain = 0
KMD1 041529Z 23006KT 31/21 A3003 RMK A01 T03110210  RH  055%=      5-min Rain = 0
KMD1 041530Z 23008KT 31/21 A3003 RMK A01 T03140206  RH  053%=      5-min Rain = 0
KMD1 041531Z 23008KT 31/21 A3003 RMK A01 T03120205  RH  053%=      5-min Rain = 0
KMD1 041532Z 22006KT 31/20 A3003 RMK A01 T03100203  RH  053%=      5-min Rain = 0
KMD1 041533Z 24006KT 31/21 A3003 RMK A01 T03090206  RH  054%=      5-min Rain = 0
KMD1 041534Z 25007KT 31/21 A3003 RMK A01 T03100207  RH  054%=      5-min Rain = 0
KMD1 041535Z 25008KT 31/20 A3002 RMK A01 T03110204  RH  053%=      5-min Rain = 0
KMD1 041536Z 22008KT 31/21 A3003 RMK A01 T03090207  RH  055%=      5-min Rain = 0
KMD1 041537Z 21007KT 31/21 A3003 RMK A01 T03090205  RH  054%=      5-min Rain = 0
KMD1 041538Z 20007KT 31/20 A3003 RMK A01 T03090204  RH  054%=      5-min Rain = 0
KMD1 041539Z 22007KT 31/20 A3003 RMK A01 T03100204  RH  054%=      5-min Rain = 0
KMD1 041540Z 23007KT 31/21 A3003 RMK A01 T03100205  RH  054%=      5-min Rain = 0
KMD1 041541Z 23007KT 31/21 A3003 RMK A01 T03100205  RH  053%=      5-min Rain = 0
KMD1 041542Z 23009KT 31/20 A3003 RMK A01 T03110204  RH  053%=      5-min Rain = 0
KMD1 041543Z 25009KT 31/20 A3003 RMK A01 T03120202  RH  052%=      5-min Rain = 0
KMD1 041544Z 24009KT 31/20 A3003 RMK A01 T03110203  RH  052%=      5-min Rain = 0
KMD1 041545Z 24008KT 31/20 A3003 RMK A01 T03100202  RH  053%=      5-min Rain = 0
KMD1 041546Z 23006KT 31/20 A3003 RMK A01 T03100203  RH  053%=      5-min Rain = 0
KMD1 041547Z 24005KT 31/20 A3003 RMK A01 T03120204  RH  053%=      5-min Rain = 0
KMD1 041548Z 25004KT 31/20 A3003 RMK A01 T03120203  RH  052%=      5-min Rain = 0
KMD1 041549Z 21005KT 31/21 A3003 RMK A01 T03120206  RH  053%=      5-min Rain = 0
KMD1 041550Z 22008KT 32/21 A3003 RMK A01 T03150207  RH  053%=      5-min Rain = 0
KMD1 041551Z 23005KT 32/20 A3003 RMK A01 T03160204  RH  052%=      5-min Rain = 0
KMD1 041552Z 21004KT 31/20 A3003 RMK A01 T03140203  RH  052%=      5-min Rain = 0
KMD1 041553Z 20006KT 31/21 A3003 RMK A01 T03120206  RH  053%=      5-min Rain = 0
KMD1 041554Z 21008KT 31/21 A3003 RMK A01 T03140205  RH  052%=      5-min Rain = 0
KMD1 041555Z 21008KT 32/20 A3003 RMK A01 T03150203  RH  051%=      5-min Rain = 0
KMD1 041556Z 22007KT 32/21 A3003 RMK A01 T03150205  RH  052%=      5-min Rain = 0
KMD1 041557Z 22006KT 31/20 A3003 RMK A01 T03130203  RH  052%=      5-min Rain = 0
KMD1 041558Z 21006KT 31/20 A3003 RMK A01 T03120204  RH  053%=      5-min Rain = 0
KMD1 041559Z 21008KT 31/20 A3003 RMK A01 T03130202  RH  052%=      5-min Rain = 0
KMD1 041600Z 20008KT 31/20 A3003 RMK A01 T03140202  RH  052%=      5-min Rain = 0
KMD1 041601Z 20006KT 32/20 A3003 RMK A01 T03150201  RH  051%=      5-min Rain = 0
KMD1 041602Z 21005KT 32/20 A3003 RMK A01 T03150204  RH  052%=      5-min Rain = 0
KMD1 041603Z 19006KT 32/20 A3003 RMK A01 T03150204  RH  052%=      5-min Rain = 0
KMD1 041604Z 20007KT 32/20 A3003 RMK A01 T03150203  RH  051%=      5-min Rain = 0
KMD1 041605Z 23008KT 32/20 A3003 RMK A01 T03160204  RH  051%=      5-min Rain = 0
KMD1 041606Z 24006KT 32/20 A3003 RMK A01 T03180203  RH  051%=      5-min Rain = 0
KMD1 041607Z 24007KT 32/20 A3003 RMK A01 T03190203  RH  050%=      5-min Rain = 0
KMD1 041608Z 24007KT 32/20 A3003 RMK A01 T03190200  RH  049%=      5-min Rain = 0
KMD1 041609Z 26010KT 32/20 A3003 RMK A01 T03200198  RH  049%=      5-min Rain = 0
KMD1 041610Z 24006KT 32/20 A3003 RMK A01 T03190201  RH  049%=      5-min Rain = 0
KMD1 041611Z 21006KT 32/20 A3003 RMK A01 T03210202  RH  050%=      5-min Rain = 0
KMD1 041612Z 21007KT 32/20 A3003 RMK A01 T03210201  RH  049%=      5-min Rain = 0
KMD1 041613Z 24007KT 32/20 A3003 RMK A01 T03200201  RH  049%=      5-min Rain = 0
KMD1 041614Z 23009KT 32/20 A3003 RMK A01 T03200199  RH  049%=      5-min Rain = 0
KMD1 041615Z 22009KT 32/19 A3003 RMK A01 T03200192  RH  047%=      5-min Rain = 0
KMD1 041616Z 23008KT 32/20 A3003 RMK A01 T03200195  RH  048%=      5-min Rain = 0
KMD1 041617Z 24008KT 32/20 A3003 RMK A01 T03190197  RH  048%=      5-min Rain = 0
KMD1 041618Z 22005KT 32/20 A3003 RMK A01 T03190196  RH  048%=      5-min Rain = 0
KMD1 041619Z 20004KT 32/20 A3003 RMK A01 T03200198  RH  049%=      5-min Rain = 0
KMD1 041620Z 22003KT 32/20 A3003 RMK A01 T03210199  RH  048%=      5-min Rain = 0
KMD1 041621Z 22005KT 32/20 A3003 RMK A01 T03240200  RH  048%=      5-min Rain = 0
KMD1 041622Z 22005KT 33/20 A3003 RMK A01 T03260197  RH  046%=      5-min Rain = 0
KMD1 041623Z 19004KT 32/20 A3003 RMK A01 T03240198  RH  047%=      5-min Rain = 0
KMD1 041624Z 21006KT 33/20 A3003 RMK A01 T03250199  RH  047%=      5-min Rain = 0
KMD1 041625Z 20007KT 33/20 A3003 RMK A01 T03250197  RH  047%=      5-min Rain = 0
KMD1 041626Z 22007KT 33/20 A3003 RMK A01 T03250199  RH  048%=      5-min Rain = 0
KMD1 041627Z 25006KT 33/20 A3003 RMK A01 T03280201  RH  047%=      5-min Rain = 0
KMD1 041628Z 23005KT 33/20 A3003 RMK A01 T03300199  RH  046%=      5-min Rain = 0
KMD1 041629Z 24007KT 33/20 A3003 RMK A01 T03280200  RH  047%=      5-min Rain = 0
KMD1 041630Z 23007KT 33/20 A3003 RMK A01 T03280200  RH  047%=      5-min Rain = 0
KMD1 041631Z 22006KT 33/20 A3003 RMK A01 T03290198  RH  046%=      5-min Rain = 0
KMD1 041632Z 24005KT 33/20 A3003 RMK A01 T03280199  RH  047%=      5-min Rain = 0
KMD1 041633Z 23005KT 33/20 A3003 RMK A01 T03280197  RH  046%=      5-min Rain = 0
KMD1 041634Z 24007KT 33/19 A3003 RMK A01 T03270194  RH  045%=      5-min Rain = 0
KMD1 041635Z 24007KT 33/20 A3003 RMK A01 T03270198  RH  047%=      5-min Rain = 0
KMD1 041636Z 24008KT 33/20 A3003 RMK A01 T03290195  RH  045%=      5-min Rain = 0
KMD1 041637Z 24005KT 33/20 A3003 RMK A01 T03280196  RH  046%=      5-min Rain = 0
KMD1 041638Z 26004KT 33/20 A3003 RMK A01 T03270195  RH  046%=      5-min Rain = 0
KMD1 041639Z 31003KT 33/19 A3003 RMK A01 T03260191  RH  045%=      5-min Rain = 0
KMD1 041640Z 27002KT 32/19 A3003 RMK A01 T03240194  RH  046%=      5-min Rain = 0
KMD1 041641Z 24002KT 33/20 A3003 RMK A01 T03250196  RH  047%=      5-min Rain = 0
KMD1 041642Z 25007KT 33/20 A3003 RMK A01 T03260198  RH  047%=      5-min Rain = 0
KMD1 041643Z 26007KT 33/20 A3003 RMK A01 T03270196  RH  046%=      5-min Rain = 0
KMD1 041644Z 27006KT 33/20 A3003 RMK A01 T03270196  RH  046%=      5-min Rain = 0
KMD1 041645Z 27006KT 33/20 A3003 RMK A01 T03290195  RH  045%=      5-min Rain = 0
KMD1 041646Z 26005KT 33/19 A3003 RMK A01 T03290194  RH  045%=      5-min Rain = 0
KMD1 041647Z 27004KT 33/19 A3003 RMK A01 T03300193  RH  045%=      5-min Rain = 0
KMD1 041648Z 25003KT 33/19 A3003 RMK A01 T03310192  RH  044%=      5-min Rain = 0
KMD1 041649Z 28004KT 33/19 A3003 RMK A01 T03320191  RH  043%=      5-min Rain = 0
KMD1 041650Z 28004KT 33/19 A3003 RMK A01 T03320189  RH  043%=      5-min Rain = 0
KMD1 041651Z 23005KT 33/19 A3003 RMK A01 T03310194  RH  044%=      5-min Rain = 0
KMD1 041652Z 23003KT 33/20 A3003 RMK A01 T03330197  RH  045%=      5-min Rain = 0
KMD1 041653Z 22006KT 34/20 A3003 RMK A01 T03360198  RH  044%=      5-min Rain = 0
KMD1 041654Z 22004KT 34/20 A3003 RMK A01 T03370195  RH  043%=      5-min Rain = 0
KMD1 041655Z 20007G12KT 34/20 A3003 RMK A01 T03370197  RH  044%=      5-min Rain = 0
KMD1 041656Z 22008KT 34/19 A3003 RMK A01 T03370194  RH  043%=      5-min Rain = 0
KMD1 041657Z 22007KT 34/19 A3003 RMK A01 T03350191  RH  043%=      5-min Rain = 0
KMD1 041658Z 20006KT 33/19 A3003 RMK A01 T03340191  RH  043%=      5-min Rain = 0
KMD1 041659Z 21006KT 33/19 A3003 RMK A01 T03330190  RH  043%=      5-min Rain = 0
KMD1 041700Z 21007KT 33/19 A3003 RMK A01 T03340190  RH  043%=      5-min Rain = 0
KMD1 041701Z 19006KT 33/19 A3003 RMK A01 T03340189  RH  042%=      5-min Rain = 0
KMD1 041702Z 20007KT 33/19 A3003 RMK A01 T03330189  RH  043%=      5-min Rain = 0
KMD1 041703Z 18005KT 33/19 A3003 RMK A01 T03330189  RH  043%=      5-min Rain = 0
KMD1 041704Z 19006KT 34/19 A3003 RMK A01 T03350189  RH  042%=      5-min Rain = 0
KMD1 041705Z 21005KT 34/19 A3003 RMK A01 T03350188  RH  042%=      5-min Rain = 0
KMD1 041706Z 25006KT 34/19 A3003 RMK A01 T03370190  RH  042%=      5-min Rain = 0
KMD1 041707Z 25006KT 34/19 A3003 RMK A01 T03380189  RH  041%=      5-min Rain = 0
KMD1 041708Z 25004KT 34/19 A3003 RMK A01 T03370190  RH  042%=      5-min Rain = 0
KMD1 041709Z 22004KT 34/19 A3003 RMK A01 T03370189  RH  042%=      5-min Rain = 0
KMD1 041710Z 26003KT 34/19 A3003 RMK A01 T03360188  RH  042%=      5-min Rain = 0
KMD1 041711Z 28002KT 34/19 A3003 RMK A01 T03350185  RH  041%=      5-min Rain = 0
KMD1 041712Z 29002KT 34/19 A3003 RMK A01 T03360187  RH  041%=      5-min Rain = 0
KMD1 041713Z 30001KT 34/19 A3003 RMK A01 T03380185  RH  040%=      5-min Rain = 0
KMD1 041714Z 34001KT 34/18 A3003 RMK A01 T03380184  RH  040%=      5-min Rain = 0
KMD1 041715Z 02002KT 34/19 A3003 RMK A01 T03390188  RH  041%=      5-min Rain = 0
KMD1 041716Z 26002KT 34/19 A3002 RMK A01 T03430189  RH  040%=      5-min Rain = 0
KMD1 041717Z 16005KT 34/19 A3002 RMK A01 T03440189  RH  040%=      5-min Rain = 0
KMD1 041718Z 15005KT 35/19 A3002 RMK A01 T03450189  RH  040%=      5-min Rain = 0
KMD1 041719Z 14005KT 35/19 A3002 RMK A01 T03450189  RH  040%=      5-min Rain = 0
KMD1 041720Z 18004KT 35/19 A3002 RMK A01 T03450187  RH  039%=      5-min Rain = 0
KMD1 041721Z 14005KT 35/19 A3002 RMK A01 T03450186  RH  039%=      5-min Rain = 0
KMD1 041722Z 14008KT 35/18 A3002 RMK A01 T03450184  RH  039%=      5-min Rain = 0
KMD1 041723Z 13008KT 35/18 A3002 RMK A01 T03460179  RH  037%=      5-min Rain = 0
KMD1 041724Z 15008KT 35/18 A3002 RMK A01 T03460177  RH  037%=      5-min Rain = 0
KMD1 041725Z 14004KT 35/18 A3002 RMK A01 T03460176  RH  037%=      5-min Rain = 0
KMD1 041726Z 15005KT 35/17 A3002 RMK A01 T03460174  RH  036%=      5-min Rain = 0
KMD1 041727Z 17005KT 35/18 A3002 RMK A01 T03450175  RH  036%=      5-min Rain = 0
KMD1 041728Z 16003KT 34/17 A3002 RMK A01 T03440173  RH  036%=      5-min Rain = 0
KMD1 041729Z 21001KT 34/17 A3002 RMK A01 T03420173  RH  037%=      5-min Rain = 0
KMD1 041730Z 26001KT 34/18 A3002 RMK A01 T03420175  RH  037%=      5-min Rain = 0
KMD1 041731Z 29002KT 34/17 A3002 RMK A01 T03440174  RH  036%=      5-min Rain = 0
KMD1 041732Z 30003KT 34/17 A3002 RMK A01 T03410172  RH  037%=      5-min Rain = 0
KMD1 041733Z 31003KT 34/17 A3002 RMK A01 T03400174  RH  037%=      5-min Rain = 0
KMD1 041734Z 28004KT 34/18 A3002 RMK A01 T03420175  RH  037%=      5-min Rain = 0
KMD1 041735Z 30002KT 34/18 A3002 RMK A01 T03430175  RH  037%=      5-min Rain = 0
KMD1 041736Z 33001KT 34/17 A3002 RMK A01 T03430174  RH  037%=      5-min Rain = 0
KMD1 041737Z 31001KT 35/18 A3002 RMK A01 T03450178  RH  037%=      5-min Rain = 0
KMD1 041738Z 28002KT 35/18 A3002 RMK A01 T03480177  RH  036%=      5-min Rain = 0
KMD1 041739Z 02005KT 35/18 A3002 RMK A01 T03490178  RH  036%=      5-min Rain = 0
KMD1 041740Z 08003KT 35/18 A3002 RMK A01 T03510175  RH  035%=      5-min Rain = 0
KMD1 041741Z 13005KT 35/18 A3002 RMK A01 T03520177  RH  036%=      5-min Rain = 0
KMD1 041742Z 13003KT 35/18 A3002 RMK A01 T03530175  RH  035%=      5-min Rain = 0
KMD1 041743Z 12002KT 35/18 A3002 RMK A01 T03530176  RH  035%=      5-min Rain = 0
KMD1 041744Z 17003KT 35/17 A3002 RMK A01 T03520173  RH  035%=      5-min Rain = 0
KMD1 041745Z 17001KT 35/17 A3002 RMK A01 T03510172  RH  035%=      5-min Rain = 0
KMD1 041746Z 05001KT 35/17 A3002 RMK A01 T03510171  RH  035%=      5-min Rain = 0
KMD1 041747Z 04002KT 35/17 A3002 RMK A01 T03510172  RH  035%=      5-min Rain = 0
KMD1 041748Z 01001KT 35/17 A3002 RMK A01 T03500171  RH  035%=      5-min Rain = 0
KMD1 041749Z 34001KT 35/17 A3002 RMK A01 T03480173  RH  035%=      5-min Rain = 0
KMD1 041750Z 05002KT 35/17 A3002 RMK A01 T03500173  RH  035%=      5-min Rain = 0
KMD1 041751Z 07002KT 35/17 A3002 RMK A01 T03520173  RH  035%=      5-min Rain = 0
KMD1 041752Z 06004KT 35/17 A3002 RMK A01 T03530172  RH  034%=      5-min Rain = 0
KMD1 041753Z 03002KT 35/17 A3002 RMK A01 T03530171  RH  034%=      5-min Rain = 0
KMD1 041754Z 01001KT 35/17 A3001 RMK A01 T03530170  RH  034%=      5-min Rain = 0
KMD1 041755Z 19001KT 35/17 A3001 RMK A01 T03530174  RH  035%=      5-min Rain = 0
KMD1 041756Z 20002KT 35/18 A3001 RMK A01 T03540178  RH  035%=      5-min Rain = 0
KMD1 041757Z 19005KT 36/18 A3001 RMK A01 T03560180  RH  036%=      5-min Rain = 0
KMD1 041758Z 17004KT 36/18 A3001 RMK A01 T03550179  RH  035%=      5-min Rain = 0
KMD1 041759Z 23003KT 35/18 A3001 RMK A01 T03520182  RH  037%=      5-min Rain = 0
KMD1 041800Z 23006KT 35/18 A3001 RMK A01 T03520182  RH  037%=      5-min Rain = 0
KMD1 041801Z 22004KT 35/18 A3001 RMK A01 T03500182  RH  037%=      5-min Rain = 0
KMD1 041802Z 21003KT 35/18 A3001 RMK A01 T03500180  RH  037%=      5-min Rain = 0
KMD1 041803Z 24002KT 35/18 A3001 RMK A01 T03490178  RH  037%=      5-min Rain = 0
KMD1 041804Z 23003KT 35/18 A3001 RMK A01 T03480181  RH  037%=      5-min Rain = 0
KMD1 041805Z 26004KT 35/18 A3001 RMK A01 T03510182  RH  037%=      5-min Rain = 0
KMD1 041806Z 25002KT 35/18 A3001 RMK A01 T03510181  RH  037%=      5-min Rain = 0
KMD1 041807Z 25001KT 35/18 A3001 RMK A01 T03510180  RH  036%=      5-min Rain = 0
KMD1 041808Z 18001KT 35/18 A3001 RMK A01 T03490179  RH  037%=      5-min Rain = 0
KMD1 041809Z 16002KT 35/18 A3001 RMK A01 T03510181  RH  037%=      5-min Rain = 0
KMD1 041810Z 13004KT 35/18 A3001 RMK A01 T03530175  RH  035%=      5-min Rain = 0
KMD1 041811Z 12003KT 35/17 A3001 RMK A01 T03530169  RH  034%=      5-min Rain = 0
KMD1 041812Z 11003KT 35/17 A3001 RMK A01 T03520169  RH  034%=      5-min Rain = 0
KMD1 041813Z 13002KT 35/17 A3001 RMK A01 T03510169  RH  034%=      5-min Rain = 0
KMD1 041814Z 22002KT 35/17 A3001 RMK A01 T03510170  RH  034%=      5-min Rain = 0
KMD1 041815Z 19002KT 35/17 A3001 RMK A01 T03530172  RH  034%=      5-min Rain = 0
KMD1 041816Z 08004KT 36/17 A3001 RMK A01 T03560173  RH  034%=      5-min Rain = 0
KMD1 041817Z 07004KT 36/17 A3001 RMK A01 T03590172  RH  033%=      5-min Rain = 0
KMD1 041818Z 08002KT 36/17 A3001 RMK A01 T03570172  RH  033%=      5-min Rain = 0
KMD1 041819Z 06003KT 36/17 A30 RMK A01 T03570173  RH  034%=      5-min Rain = 0
KMD1 041820Z 08001KT 36/17 A30 RMK A01 T03600173  RH  033%=      5-min Rain = 0
KMD1 041821Z 10002KT 36/17 A30 RMK A01 T03620174  RH  033%=      5-min Rain = 0
KMD1 041822Z 11001KT 37/18 A30 RMK A01 T03650175  RH  033%=      5-min Rain = 0
KMD1 041823Z 19003KT 37/17 A30 RMK A01 T03680174  RH  032%=      5-min Rain = 0
KMD1 041824Z 19004KT 37/17 A30 RMK A01 T03670170  RH  031%=      5-min Rain = 0
KMD1 041825Z 18008KT 37/17 A30 RMK A01 T03650167  RH  031%=      5-min Rain = 0
KMD1 041826Z 18006KT 36/16 A30 RMK A01 T03640163  RH  030%=      5-min Rain = 0
KMD1 041827Z 20004KT 36/16 A30 RMK A01 T03610161  RH  031%=      5-min Rain = 0
KMD1 041828Z 21005KT 36/16 A30 RMK A01 T03600160  RH  030%=      5-min Rain = 0
KMD1 041829Z 21003KT 36/16 A30 RMK A01 T03610157  RH  030%=      5-min Rain = 0
KMD1 041830Z 26003KT 36/16 A30 RMK A01 T03600160  RH  030%=      5-min Rain = 0
KMD1 041831Z 27002KT 36/16 A30 RMK A01 T03580163  RH  032%=      5-min Rain = 0
KMD1 041832Z 23005KT 36/16 A30 RMK A01 T03590164  RH  032%=      5-min Rain = 0
KMD1 041833Z 22005G10KT 36/16 A30 RMK A01 T03600163  RH  031%=      5-min Rain = 0
KMD1 041834Z 18005KT 36/17 A30 RMK A01 T03610165  RH  031%=      5-min Rain = 0
KMD1 041835Z 15006KT 37/16 A30 RMK A01 T03660163  RH  030%=      5-min Rain = 0
KMD1 041836Z 15004KT 37/16 A30 RMK A01 T03650160  RH  030%=      5-min Rain = 0
KMD1 041837Z 17006KT 36/16 A30 RMK A01 T03620161  RH  030%=      5-min Rain = 0
KMD1 041838Z 16009KT 36/16 A30 RMK A01 T03620156  RH  029%=      5-min Rain = 0
KMD1 041839Z 16008KT 37/16 A30 RMK A01 T03650159  RH  029%=      5-min Rain = 0
KMD1 041840Z 17005KT 37/16 A30 RMK A01 T03670157  RH  029%=      5-min Rain = 0
KMD1 041841Z 15008KT 37/16 A30 RMK A01 T03670162  RH  030%=      5-min Rain = 0
KMD1 041842Z 12005KT 37/16 A30 RMK A01 T03690157  RH  029%=      5-min Rain = 0
KMD1 041843Z 13005KT 37/15 A30 RMK A01 T03650154  RH  029%=      5-min Rain = 0
KMD1 041844Z 12004KT 36/15 A30 RMK A01 T03640148  RH  028%=      5-min Rain = 0
KMD1 041845Z 14007KT 36/16 A30 RMK A01 T03620156  RH  029%=      5-min Rain = 0
KMD1 041846Z 12009KT 37/16 A2999 RMK A01 T03650161  RH  030%=      5-min Rain = 0
KMD1 041847Z 13008KT 37/16 A30 RMK A01 T03670160  RH  029%=      5-min Rain = 0
KMD1 041848Z 16005KT 37/16 A30 RMK A01 T03660161  RH  030%=      5-min Rain = 0
KMD1 041849Z 15001G6KT 37/16 A30 RMK A01 T03650157  RH  029%=      5-min Rain = 0
KMD1 041850Z 15005KT 36/16 A30 RMK A01 T03640160  RH  030%=      5-min Rain = 0
KMD1 041851Z 20004KT 36/16 A30 RMK A01 T03640160  RH  030%=      5-min Rain = 0
KMD1 041852Z 35001KT 36/16 A2999 RMK A01 T03640161  RH  030%=      5-min Rain = 0
KMD1 041853Z 02002KT 37/17 A2999 RMK A01 T03660165  RH  031%=      5-min Rain = 0
KMD1 041854Z 08003KT 37/16 A30 RMK A01 T03680161  RH  029%=      5-min Rain = 0
KMD1 041855Z 08004KT 37/16 A2999 RMK A01 T03650160  RH  030%=      5-min Rain = 0
KMD1 041856Z 06002KT 36/16 A2999 RMK A01 T03590158  RH  030%=      5-min Rain = 0
KMD1 041857Z 15001KT 36/16 A2999 RMK A01 T03570157  RH  030%=      5-min Rain = 0
KMD1 041858Z 13003KT 36/16 A2999 RMK A01 T03580160  RH  031%=      5-min Rain = 0
KMD1 041859Z 17005KT 36/16 A2999 RMK A01 T03600158  RH  030%=      5-min Rain = 0
KMD1 041900Z 16007KT 36/16 A2999 RMK A01 T03640158  RH  030%=      5-min Rain = 0
KMD1 041901Z 14008KT 37/16 A2999 RMK A01 T03690158  RH  029%=      5-min Rain = 0
KMD1 041902Z 11009KT 37/16 A2999 RMK A01 T03730157  RH  028%=      5-min Rain = 0
KMD1 041903Z 12007KT 37/16 A2999 RMK A01 T03690156  RH  028%=      5-min Rain = 0
KMD1 041904Z 12006KT 37/16 A2999 RMK A01 T03670157  RH  029%=      5-min Rain = 0
KMD1 041905Z 14003KT 36/15 A2999 RMK A01 T03630154  RH  029%=      5-min Rain = 0
KMD1 041906Z 15007KT 36/16 A2999 RMK A01 T03630157  RH  029%=      5-min Rain = 0
KMD1 041907Z 16011KT 37/15 A2999 RMK A01 T03660152  RH  028%=      5-min Rain = 0
KMD1 041908Z 15008KT 37/15 A2999 RMK A01 T03680153  RH  028%=      5-min Rain = 0
KMD1 041909Z 12006KT 37/15 A2999 RMK A01 T03670152  RH  028%=      5-min Rain = 0
KMD1 041910Z 14005KT 36/15 A2999 RMK A01 T03640153  RH  029%=      5-min Rain = 0
KMD1 041911Z 16005KT 37/15 A2999 RMK A01 T03650151  RH  028%=      5-min Rain = 0
KMD1 041912Z 16007KT 37/16 A2999 RMK A01 T03680155  RH  028%=      5-min Rain = 0
KMD1 041913Z 16005KT 37/15 A2999 RMK A01 T03700152  RH  027%=      5-min Rain = 0
KMD1 041914Z 13003KT 37/15 A2999 RMK A01 T03700147  RH  027%=      5-min Rain = 0
KMD1 041915Z 19005KT 37/15 A2999 RMK A01 T03700151  RH  027%=      5-min Rain = 0
KMD1 041916Z 22005KT 37/15 A2999 RMK A01 T03690154  RH  028%=      5-min Rain = 0
KMD1 041917Z 24005KT 37/15 A2998 RMK A01 T03670154  RH  028%=      5-min Rain = 0
KMD1 041918Z 25004KT 37/15 A2998 RMK A01 T03670154  RH  028%=      5-min Rain = 0
KMD1 041919Z 24002KT 37/16 A2998 RMK A01 T03680156  RH  028%=      5-min Rain = 0
KMD1 041920Z 15000KT 37/16 A2998 RMK A01 T03700156  RH  028%=      5-min Rain = 0
KMD1 041921Z 16002KT 37/15 A2998 RMK A01 T03710153  RH  028%=      5-min Rain = 0
KMD1 041922Z 11004KT 37/15 A2998 RMK A01 T03700153  RH  028%=      5-min Rain = 0
KMD1 041923Z 13006KT 37/15 A2998 RMK A01 T03670145  RH  027%=      5-min Rain = 0
KMD1 041924Z 13004KT 36/14 A2998 RMK A01 T03630144  RH  027%=      5-min Rain = 0
KMD1 041925Z 13004KT 36/15 A2998 RMK A01 T03610146  RH  028%=      5-min Rain = 0
KMD1 041926Z 11003KT 36/15 A2998 RMK A01 T03600146  RH  028%=      5-min Rain = 0
KMD1 041927Z 05003KT 36/15 A2998 RMK A01 T03590149  RH  029%=      5-min Rain = 0
KMD1 041928Z 06006KT 36/15 A2998 RMK A01 T03590150  RH  029%=      5-min Rain = 0
KMD1 041929Z 06009KT 36/15 A2998 RMK A01 T03590149  RH  029%=      5-min Rain = 0
KMD1 041930Z 07007KT 36/15 A2998 RMK A01 T03590145  RH  028%=      5-min Rain = 0
KMD1 041931Z 06006KT 36/14 A2998 RMK A01 T03580144  RH  028%=      5-min Rain = 0
KMD1 041932Z 06006KT 36/14 A2998 RMK A01 T03570144  RH  028%=      5-min Rain = 0
KMD1 041933Z 07003KT 36/14 A2998 RMK A01 T03570142  RH  028%=      5-min Rain = 0
KMD1 041934Z 11001KT 36/14 A2998 RMK A01 T03560143  RH  028%=      5-min Rain = 0
KMD1 041935Z 21001KT 35/14 A2998 RMK A01 T03540141  RH  028%=      5-min Rain = 0
KMD1 041936Z 21001KT 35/14 A2998 RMK A01 T03540143  RH  028%=      5-min Rain = 0
KMD1 041937Z 20002KT 35/14 A2998 RMK A01 T03540144  RH  028%=      5-min Rain = 0
KMD1 041938Z 13003KT 36/14 A2997 RMK A01 T03550144  RH  028%=      5-min Rain = 0
KMD1 041939Z 14003KT 36/15 A2997 RMK A01 T03580145  RH  028%=      5-min Rain = 0
KMD1 041940Z 12007G12KT 36/15 A2997 RMK A01 T03600151  RH  029%=      5-min Rain = 0
KMD1 041941Z 10007KT 36/15 A2997 RMK A01 T03630150  RH  028%=      5-min Rain = 0
KMD1 041942Z 07004KT 37/15 A2997 RMK A01 T03660149  RH  028%=      5-min Rain = 0
KMD1 041943Z 06004KT 36/15 A2997 RMK A01 T03640147  RH  027%=      5-min Rain = 0
KMD1 041944Z 06004KT 36/14 A2997 RMK A01 T03620144  RH  027%=      5-min Rain = 0
KMD1 041945Z 36003KT 36/15 A2997 RMK A01 T03620146  RH  028%=      5-min Rain = 0
KMD1 041946Z 29002KT 36/15 A2997 RMK A01 T03630145  RH  027%=      5-min Rain = 0
KMD1 041947Z 12005KT 37/15 A2997 RMK A01 T03670146  RH  027%=      5-min Rain = 0
KMD1 041948Z 09004KT 37/14 A2997 RMK A01 T03700142  RH  026%=      5-min Rain = 0
KMD1 041949Z 15006KT 37/13 A2997 RMK A01 T03690134  RH  025%=      5-min Rain = 0
KMD1 041950Z 17009KT 37/13 A2997 RMK A01 T03690132  RH  024%=      5-min Rain = 0
KMD1 041951Z 16008KT 37/13 A2997 RMK A01 T03710133  RH  024%=      5-min Rain = 0
KMD1 041952Z 17009KT 37/13 A2997 RMK A01 T03720130  RH  024%=      5-min Rain = 0
KMD1 041953Z 16008KT 37/13 A2997 RMK A01 T03710132  RH  024%=      5-min Rain = 0
KMD1 041954Z 19006KT 37/13 A2997 RMK A01 T03720133  RH  024%=      5-min Rain = 0
KMD1 041955Z 22005KT 37/13 A2997 RMK A01 T03730131  RH  024%=      5-min Rain = 0
KMD1 041956Z 22002KT 37/13 A2997 RMK A01 T03710134  RH  024%=      5-min Rain = 0
KMD1 041957Z 26003KT 37/13 A2997 RMK A01 T03690134  RH  025%=      5-min Rain = 0
KMD1 041958Z 29004KT 37/13 A2997 RMK A01 T03680134  RH  025%=      5-min Rain = 0
KMD1 041959Z 30003KT 37/14 A2997 RMK A01 T03680138  RH  025%=      5-min Rain = 0
KMD1 042000Z 29002KT 37/14 A2997 RMK A01 T03710138  RH  025%=      5-min Rain = 0
KMD1 042001Z 16002KT 38/14 A2997 RMK A01 T03750138  RH  025%=      5-min Rain = 0
KMD1 042002Z 17002KT 38/14 A2997 RMK A01 T03760137  RH  024%=      5-min Rain = 0
KMD1 042003Z 13007KT 38/14 A2997 RMK A01 T03760140  RH  025%=      5-min Rain = 0
KMD1 042004Z 14009KT 38/14 A2997 RMK A01 T03780139  RH  024%=      5-min Rain = 0
KMD1 042005Z 17008KT 38/14 A2997 RMK A01 T03810138  RH  024%=      5-min Rain = 0
KMD1 042006Z 17006KT 38/14 A2997 RMK A01 T03800137  RH  024%=      5-min Rain = 0
KMD1 042007Z 17003KT 38/13 A2997 RMK A01 T03760132  RH  023%=      5-min Rain = 0
KMD1 042008Z 14002KT 37/13 A2997 RMK A01 T03720131  RH  024%=      5-min Rain = 0
KMD1 042009Z 16003KT 37/13 A2997 RMK A01 T03720133  RH  024%=      5-min Rain = 0
KMD1 042010Z 18005KT 38/14 A2996 RMK A01 T03750136  RH  024%=      5-min Rain = 0
KMD1 042011Z 21004KT 38/13 A2996 RMK A01 T03770134  RH  024%=      5-min Rain = 0
KMD1 042012Z 23004KT 38/13 A2996 RMK A01 T03800133  RH  023%=      5-min Rain = 0
KMD1 042013Z 23006KT 38/14 A2996 RMK A01 T03790137  RH  024%=      5-min Rain = 0
KMD1 042014Z 23006KT 37/14 A2996 RMK A01 T03740142  RH  025%=      5-min Rain = 0
KMD1 042015Z 22003KT 37/14 A2996 RMK A01 T03710144  RH  026%=      5-min Rain = 0
KMD1 042016Z 14001KT 37/14 A2996 RMK A01 T03710141  RH  026%=      5-min Rain = 0
KMD1 042017Z 08004KT 37/15 A2996 RMK A01 T03720147  RH  026%=      5-min Rain = 0
KMD1 042018Z 10005KT 38/15 A2996 RMK A01 T03750151  RH  027%=      5-min Rain = 0
KMD1 042019Z 09003KT 38/15 A2996 RMK A01 T03780150  RH  026%=      5-min Rain = 0
KMD1 042020Z 05005KT 38/15 A2996 RMK A01 T03780151  RH  026%=      5-min Rain = 0
KMD1 042021Z 05006KT 38/15 A2996 RMK A01 T03790151  RH  026%=      5-min Rain = 0
KMD1 042022Z 06007KT 38/15 A2996 RMK A01 T03780145  RH  025%=      5-min Rain = 0
KMD1 042023Z 07009KT 37/14 A2996 RMK A01 T03740143  RH  025%=      5-min Rain = 0
KMD1 042024Z 07007KT 37/14 A2996 RMK A01 T03700141  RH  026%=      5-min Rain = 0
KMD1 042025Z 07006KT 37/14 A2996 RMK A01 T03670141  RH  026%=      5-min Rain = 0
KMD1 042026Z 10004KT 37/14 A2996 RMK A01 T03650141  RH  026%=      5-min Rain = 0
KMD1 042027Z 09004KT 36/14 A2996 RMK A01 T03640140  RH  026%=      5-min Rain = 0
KMD1 042028Z 07003KT 37/14 A2996 RMK A01 T03650144  RH  027%=      5-min Rain = 0
KMD1 042029Z 08005KT 37/15 A2996 RMK A01 T03700145  RH  026%=      5-min Rain = 0
KMD1 042030Z 11005KT 37/14 A2996 RMK A01 T03730143  RH  026%=      5-min Rain = 0
KMD1 042031Z 11007KT 37/15 A2996 RMK A01 T03740146  RH  026%=      5-min Rain = 0
KMD1 042032Z 11009KT 38/14 A2996 RMK A01 T03770143  RH  025%=      5-min Rain = 0
KMD1 042033Z 13010KT 38/14 A2996 RMK A01 T03810136  RH  023%=      5-min Rain = 0
KMD1 042034Z 14009KT 38/13 A2996 RMK A01 T03830133  RH  023%=      5-min Rain = 0
KMD1 042035Z 15008KT 38/13 A2995 RMK A01 T03840134  RH  023%=      5-min Rain = 0
KMD1 042036Z 15008KT 38/14 A2995 RMK A01 T03830137  RH  023%=      5-min Rain = 0
KMD1 042037Z 13008KT 38/14 A2995 RMK A01 T03840141  RH  024%=      5-min Rain = 0
KMD1 042038Z 12008KT 39/14 A2995 RMK A01 T03850144  RH  024%=      5-min Rain = 0
KMD1 042039Z 12009KT 39/14 A2995 RMK A01 T03860138  RH  023%=      5-min Rain = 0
KMD1 042040Z 13010KT 39/13 A2995 RMK A01 T03850134  RH  023%=      5-min Rain = 0
KMD1 042041Z 12011KT 38/13 A2995 RMK A01 T03840134  RH  023%=      5-min Rain = 0
KMD1 042042Z 12008KT 38/13 A2995 RMK A01 T03820128  RH  022%=      5-min Rain = 0
KMD1 042043Z 08007KT 38/13 A2995 RMK A01 T03790127  RH  022%=      5-min Rain = 0
KMD1 042044Z 07007KT 38/12 A2995 RMK A01 T03790124  RH  022%=      5-min Rain = 0
KMD1 042045Z 10008KT 38/13 A2995 RMK A01 T03780128  RH  023%=      5-min Rain = 0
KMD1 042046Z 10007KT 38/13 A2995 RMK A01 T03800130  RH  023%=      5-min Rain = 0
KMD1 042047Z 13005KT 38/13 A2995 RMK A01 T03820130  RH  022%=      5-min Rain = 0
KMD1 042048Z 14004KT 38/13 A2995 RMK A01 T03840129  RH  022%=      5-min Rain = 0
KMD1 042049Z 12008KT 38/13 A2995 RMK A01 T03840131  RH  022%=      5-min Rain = 0
KMD1 042050Z 13007KT 38/13 A2995 RMK A01 T03820129  RH  022%=      5-min Rain = 0
KMD1 042051Z 15007KT 38/13 A2995 RMK A01 T03790129  RH  023%=      5-min Rain = 0
KMD1 042052Z 16004KT 38/13 A2995 RMK A01 T03760131  RH  023%=      5-min Rain = 0
KMD1 042053Z 22003KT 38/13 A2995 RMK A01 T03760131  RH  023%=      5-min Rain = 0
KMD1 042054Z 23002KT 38/13 A2994 RMK A01 T03750131  RH  023%=      5-min Rain = 0
KMD1 042055Z 25005KT 37/13 A2994 RMK A01 T03740134  RH  024%=      5-min Rain = 0
KMD1 042056Z 29004KT 38/13 A2994 RMK A01 T03750134  RH  024%=      5-min Rain = 0
KMD1 042057Z 29003KT 38/14 A2994 RMK A01 T03750135  RH  024%=      5-min Rain = 0
KMD1 042058Z 25005KT 38/14 A2994 RMK A01 T03770138  RH  024%=      5-min Rain = 0
KMD1 042059Z 17007G12KT 38/14 A2993 RMK A01 T03830139  RH  024%=      5-min Rain = 0
KMD1 042100Z 07008KT 39/14 A2994 RMK A01 T03850135  RH  023%=      5-min Rain = 0
KMD1 042101Z 09007KT 38/13 A2994 RMK A01 T03840133  RH  023%=      5-min Rain = 0
KMD1 042102Z 09007KT 39/13 A2994 RMK A01 T03850130  RH  022%=      5-min Rain = 0
KMD1 042103Z 12005KT 38/13 A2994 RMK A01 T03810129  RH  022%=      5-min Rain = 0
KMD1 042104Z 11007KT 38/13 A2994 RMK A01 T03770130  RH  023%=      5-min Rain = 0
KMD1 042105Z 09008KT 38/13 A2994 RMK A01 T03760129  RH  023%=      5-min Rain = 0
KMD1 042106Z 08008KT 38/13 A2994 RMK A01 T03790129  RH  023%=      5-min Rain = 0
KMD1 042107Z 08008KT 38/13 A2994 RMK A01 T03820130  RH  022%=      5-min Rain = 0
KMD1 042108Z 08008KT 38/13 A2994 RMK A01 T03820127  RH  022%=      5-min Rain = 0
KMD1 042109Z 08006KT 38/13 A2994 RMK A01 T03810128  RH  022%=      5-min Rain = 0
KMD1 042110Z 06005KT 38/13 A2993 RMK A01 T03780126  RH  022%=      5-min Rain = 0
KMD1 042111Z 08004KT 38/13 A2993 RMK A01 T03770129  RH  023%=      5-min Rain = 0
KMD1 042112Z 14009KT 38/13 A2993 RMK A01 T03800128  RH  022%=      5-min Rain = 0
KMD1 042113Z 14008KT 38/13 A2993 RMK A01 T03810125  RH  022%=      5-min Rain = 0
KMD1 042114Z 11004KT 38/12 A2993 RMK A01 T03790124  RH  022%=      5-min Rain = 0
KMD1 042115Z 12006KT 38/12 A2993 RMK A01 T03780124  RH  022%=      5-min Rain = 0
KMD1 042116Z 12003KT 38/12 A2993 RMK A01 T03780123  RH  022%=      5-min Rain = 0
KMD1 042117Z 15004KT 38/12 A2993 RMK A01 T03770124  RH  022%=      5-min Rain = 0
KMD1 042118Z 08003KT 38/12 A2993 RMK A01 T03780123  RH  022%=      5-min Rain = 0
KMD1 042119Z 07002KT 38/12 A2993 RMK A01 T03790121  RH  021%=      5-min Rain = 0
KMD1 042120Z 07001KT 38/12 A2993 RMK A01 T03770122  RH  022%=      5-min Rain = 0
KMD1 042121Z 17007KT 38/12 A2993 RMK A01 T03780124  RH  022%=      5-min Rain = 0
KMD1 042122Z 20006KT 38/12 A2993 RMK A01 T03790124  RH  022%=      5-min Rain = 0
KMD1 042123Z 24003KT 38/12 A2993 RMK A01 T03780122  RH  022%=      5-min Rain = 0
KMD1 042124Z 19003KT 38/12 A2993 RMK A01 T03760124  RH  022%=      5-min Rain = 0
KMD1 042125Z 15005KT 38/13 A2993 RMK A01 T03780125  RH  022%=      5-min Rain = 0
KMD1 042126Z 12007KT 38/13 A2993 RMK A01 T03810126  RH  022%=      5-min Rain = 0
KMD1 042127Z 13009KT 39/13 A2993 RMK A01 T03860129  RH  022%=      5-min Rain = 0
KMD1 042128Z 18007KT 39/13 A2993 RMK A01 T03910129  RH  021%=      5-min Rain = 0
KMD1 042129Z 21005KT 39/13 A2993 RMK A01 T03910125  RH  020%=      5-min Rain = 0
KMD1 042130Z 18005KT 39/13 A2993 RMK A01 T03870125  RH  021%=      5-min Rain = 0
KMD1 042131Z 17003KT 38/12 A2993 RMK A01 T03840124  RH  021%=      5-min Rain = 0
KMD1 042132Z 18005KT 38/13 A2992 RMK A01 T03840127  RH  022%=      5-min Rain = 0
KMD1 042133Z 16005KT 39/13 A2992 RMK A01 T03860128  RH  022%=      5-min Rain = 0
KMD1 042134Z 07004KT 39/12 A2992 RMK A01 T03860124  RH  021%=      5-min Rain = 0
KMD1 042135Z 01001KT 38/12 A2992 RMK A01 T03800120  RH  021%=      5-min Rain = 0
KMD1 042136Z 36002KT 38/12 A2992 RMK A01 T03770123  RH  022%=      5-min Rain = 0
KMD1 042137Z 09006KT 38/13 A2992 RMK A01 T03800126  RH  022%=      5-min Rain = 0
KMD1 042138Z 08007KT 38/13 A2992 RMK A01 T03810126  RH  022%=      5-min Rain = 0
KMD1 042139Z 07005KT 38/12 A2992 RMK A01 T03810120  RH  021%=      5-min Rain = 0
KMD1 042140Z 07007KT 38/13 A2992 RMK A01 T03810126  RH  022%=      5-min Rain = 0
KMD1 042141Z 06005KT 38/12 A2992 RMK A01 T03820123  RH  021%=      5-min Rain = 0
KMD1 042142Z 10006KT 38/13 A2992 RMK A01 T03820126  RH  022%=      5-min Rain = 0
KMD1 042143Z 08004KT 39/13 A2992 RMK A01 T03850126  RH  021%=      5-min Rain = 0
KMD1 042144Z 14004KT 39/12 A2992 RMK A01 T03860122  RH  021%=      5-min Rain = 0
KMD1 042145Z 13003KT 38/12 A2992 RMK A01 T03840124  RH  021%=      5-min Rain = 0
KMD1 042146Z 19003KT 39/13 A2992 RMK A01 T03850128  RH  022%=      5-min Rain = 0
KMD1 042147Z 20006KT 39/13 A2992 RMK A01 T03870129  RH  022%=      5-min Rain = 0
KMD1 042148Z 19005KT 39/13 A2992 RMK A01 T03870131  RH  022%=      5-min Rain = 0
KMD1 042149Z 20007KT 39/13 A2992 RMK A01 T03860127  RH  021%=      5-min Rain = 0
KMD1 042150Z 19009KT 39/13 A2992 RMK A01 T03850128  RH  022%=      5-min Rain = 0
KMD1 042151Z 18005KT 38/13 A2992 RMK A01 T03840126  RH  022%=      5-min Rain = 0
KMD1 042152Z 19005KT 38/13 A2992 RMK A01 T03810129  RH  022%=      5-min Rain = 0
KMD1 042153Z 20003KT 38/13 A2992 RMK A01 T03830128  RH  022%=      5-min Rain = 0
KMD1 042154Z 20004KT 38/13 A2991 RMK A01 T03830128  RH  022%=      5-min Rain = 0
KMD1 042155Z 19007KT 38/13 A2991 RMK A01 T03830127  RH  022%=      5-min Rain = 0
KMD1 042156Z 19004KT 38/12 A2991 RMK A01 T03820124  RH  021%=      5-min Rain = 0
KMD1 042157Z 21006KT 38/13 A2991 RMK A01 T03820130  RH  022%=      5-min Rain = 0
KMD1 042158Z 21006KT 38/13 A2991 RMK A01 T03840128  RH  022%=      5-min Rain = 0
KMD1 042159Z 23006KT 38/13 A2991 RMK A01 T03840128  RH  022%=      5-min Rain = 0
KMD1 042200Z 25007KT 39/13 A2991 RMK A01 T03860126  RH  021%=      5-min Rain = 0
KMD1 042201Z 26005KT 39/12 A2991 RMK A01 T03850124  RH  021%=      5-min Rain = 0
KMD1 042202Z 20005KT 39/13 A2991 RMK A01 T03850130  RH  022%=      5-min Rain = 0
KMD1 042203Z 19005KT 39/13 A2991 RMK A01 T03870125  RH  021%=      5-min Rain = 0
KMD1 042204Z 19004KT 39/13 A2991 RMK A01 T03860129  RH  022%=      5-min Rain = 0
KMD1 042205Z 18005KT 39/13 A2991 RMK A01 T03860128  RH  022%=      5-min Rain = 0
KMD1 042206Z 14008G13KT 39/13 A2991 RMK A01 T03870131  RH  022%=      5-min Rain = 0
KMD1 042207Z 15010KT 39/13 A2991 RMK A01 T03880130  RH  022%=      5-min Rain = 0
KMD1 042208Z 15008KT 39/13 A2991 RMK A01 T03860130  RH  022%=      5-min Rain = 0
KMD1 042209Z 17011KT 39/13 A2991 RMK A01 T03860129  RH  022%=      5-min Rain = 0
KMD1 042210Z 19008KT 39/13 A2991 RMK A01 T03850126  RH  021%=      5-min Rain = 0
KMD1 042211Z 19005KT 38/13 A2991 RMK A01 T03820128  RH  022%=      5-min Rain = 0
KMD1 042212Z 18003KT 38/13 A299 RMK A01 T03810126  RH  022%=      5-min Rain = 0
KMD1 042213Z 22004KT 38/13 A299 RMK A01 T03810131  RH  023%=      5-min Rain = 0
KMD1 042214Z 20006KT 38/13 A299 RMK A01 T03810129  RH  022%=      5-min Rain = 0
KMD1 042215Z 21006KT 38/13 A299 RMK A01 T03800127  RH  022%=      5-min Rain = 0
KMD1 042216Z 20004KT 38/13 A299 RMK A01 T03810128  RH  022%=      5-min Rain = 0
KMD1 042217Z 22003KT 38/12 A299 RMK A01 T03820123  RH  021%=      5-min Rain = 0
KMD1 042218Z 23002KT 38/13 A299 RMK A01 T03800126  RH  022%=      5-min Rain = 0
KMD1 042219Z 27001KT 38/13 A299 RMK A01 T03820126  RH  022%=      5-min Rain = 0
KMD1 042220Z 28001KT 38/13 A299 RMK A01 T03840126  RH  022%=      5-min Rain = 0
KMD1 042221Z 25002KT 39/12 A299 RMK A01 T03850124  RH  021%=      5-min Rain = 0
KMD1 042222Z 25005KT 39/13 A299 RMK A01 T03850127  RH  022%=      5-min Rain = 0
KMD1 042223Z 25004KT 39/13 A299 RMK A01 T03860127  RH  021%=      5-min Rain = 0
KMD1 042224Z 23003KT 38/13 A299 RMK A01 T03840126  RH  021%=      5-min Rain = 0
KMD1 042225Z 23002KT 38/13 A299 RMK A01 T03830126  RH  022%=      5-min Rain = 0
KMD1 042226Z 31003KT 38/13 A299 RMK A01 T03840128  RH  022%=      5-min Rain = 0
KMD1 042227Z 32003KT 39/13 A299 RMK A01 T03850126  RH  021%=      5-min Rain = 0
KMD1 042228Z 29006KT 39/13 A299 RMK A01 T03850128  RH  022%=      5-min Rain = 0
KMD1 042229Z 30004KT 38/13 A299 RMK A01 T03820126  RH  022%=      5-min Rain = 0
KMD1 042230Z 29004KT 38/13 A299 RMK A01 T03790129  RH  022%=      5-min Rain = 0
KMD1 042231Z 28003KT 38/13 A299 RMK A01 T03810127  RH  022%=      5-min Rain = 0
KMD1 042232Z 29003KT 38/13 A299 RMK A01 T03810126  RH  022%=      5-min Rain = 0
KMD1 042233Z 27005KT 38/13 A2989 RMK A01 T03830130  RH  022%=      5-min Rain = 0
KMD1 042234Z 25007KT 39/14 A2989 RMK A01 T03860136  RH  023%=      5-min Rain = 0
KMD1 042235Z 26009KT 39/13 A2989 RMK A01 T03890132  RH  022%=      5-min Rain = 0
KMD1 042236Z 24004KT 39/13 A299 RMK A01 T03880126  RH  021%=      5-min Rain = 0
KMD1 042237Z 27002KT 38/13 A2989 RMK A01 T03840128  RH  022%=      5-min Rain = 0
KMD1 042238Z 30000KT 38/13 A2989 RMK A01 T03840127  RH  022%=      5-min Rain = 0
KMD1 042239Z 33001KT 39/13 A2989 RMK A01 T03850128  RH  022%=      5-min Rain = 0
KMD1 042240Z 31003KT 39/13 A2989 RMK A01 T03870129  RH  021%=      5-min Rain = 0
KMD1 042241Z 29002KT 39/13 A2989 RMK A01 T03870126  RH  021%=      5-min Rain = 0
KMD1 042242Z 32003KT 39/13 A2989 RMK A01 T03850128  RH  022%=      5-min Rain = 0
KMD1 042243Z 35002KT 39/13 A2989 RMK A01 T03850128  RH  022%=      5-min Rain = 0
KMD1 042244Z 04003KT 39/13 A2989 RMK A01 T03870129  RH  022%=      5-min Rain = 0
KMD1 042245Z 09002KT 39/13 A2989 RMK A01 T03860126  RH  021%=      5-min Rain = 0
KMD1 042246Z 09003KT 38/13 A2989 RMK A01 T03840127  RH  022%=      5-min Rain = 0
KMD1 042247Z 07005KT 38/13 A2989 RMK A01 T03830127  RH  022%=      5-min Rain = 0
KMD1 042248Z 11009KT 38/13 A2989 RMK A01 T03820129  RH  022%=      5-min Rain = 0
KMD1 042249Z 11008KT 38/13 A2989 RMK A01 T03830129  RH  022%=      5-min Rain = 0
KMD1 042250Z 10008KT 39/13 A2989 RMK A01 T03850129  RH  022%=      5-min Rain = 0
KMD1 042251Z 10009KT 38/13 A2989 RMK A01 T03840128  RH  022%=      5-min Rain = 0
KMD1 042252Z 10008KT 38/13 A2988 RMK A01 T03800127  RH  022%=      5-min Rain = 0
KMD1 042253Z 08007KT 38/13 A2988 RMK A01 T03800129  RH  023%=      5-min Rain = 0
KMD1 042254Z 10006KT 38/13 A2988 RMK A01 T03820130  RH  022%=      5-min Rain = 0
KMD1 042255Z 10005KT 38/13 A2988 RMK A01 T03840130  RH  022%=      5-min Rain = 0
KMD1 042256Z 13006KT 39/13 A2988 RMK A01 T03850130  RH  022%=      5-min Rain = 0
KMD1 042257Z 14005KT 39/13 A2988 RMK A01 T03850130  RH  022%=      5-min Rain = 0
KMD1 042258Z 13005KT 38/13 A2988 RMK A01 T03840128  RH  022%=      5-min Rain = 0
KMD1 042259Z 13005KT 38/13 A2988 RMK A01 T03830131  RH  022%=      5-min Rain = 0
KMD1 042300Z 15008KT 39/13 A2988 RMK A01 T03860130  RH  022%=      5-min Rain = 0
KMD1 042301Z 15009KT 39/13 A2988 RMK A01 T03870129  RH  022%=      5-min Rain = 0
KMD1 042302Z 15009KT 39/13 A2988 RMK A01 T03870128  RH  021%=      5-min Rain = 0
KMD1 042303Z 15004KT 38/13 A2988 RMK A01 T03840126  RH  021%=      5-min Rain = 0
KMD1 042304Z 14003KT 38/13 A2988 RMK A01 T03820127  RH  022%=      5-min Rain = 0
KMD1 042305Z 15005KT 38/13 A2988 RMK A01 T03840131  RH  022%=      5-min Rain = 0
KMD1 042306Z 17004KT 39/13 A2988 RMK A01 T03880126  RH  021%=      5-min Rain = 0
KMD1 042307Z 18004KT 39/13 A2988 RMK A01 T03850126  RH  021%=      5-min Rain = 0
KMD1 042308Z 19009KT 39/13 A2988 RMK A01 T03850130  RH  022%=      5-min Rain = 0
KMD1 042309Z 18008KT 39/13 A2988 RMK A01 T03850130  RH  022%=      5-min Rain = 0
KMD1 042310Z 15007KT 39/13 A2988 RMK A01 T03850132  RH  022%=      5-min Rain = 0
KMD1 042311Z 15007KT 39/13 A2988 RMK A01 T03860130  RH  022%=      5-min Rain = 0
KMD1 042312Z 16007KT 39/13 A2988 RMK A01 T03870128  RH  021%=      5-min Rain = 0
KMD1 042313Z 16004KT 39/13 A2988 RMK A01 T03850127  RH  022%=      5-min Rain = 0
KMD1 042314Z 12006KT 38/13 A2988 RMK A01 T03830129  RH  022%=      5-min Rain = 0
KMD1 042315Z 12005KT 38/13 A2988 RMK A01 T03830127  RH  022%=      5-min Rain = 0
KMD1 042316Z 14005KT 38/13 A2988 RMK A01 T03830129  RH  022%=      5-min Rain = 0
KMD1 042317Z 13005KT 38/13 A2988 RMK A01 T03810129  RH  022%=      5-min Rain = 0
KMD1 042318Z 17005KT 38/13 A2988 RMK A01 T03820133  RH  023%=      5-min Rain = 0
KMD1 042319Z 15005KT 38/13 A2988 RMK A01 T03840131  RH  022%=      5-min Rain = 0
KMD1 042320Z 13004KT 39/13 A2988 RMK A01 T03850133  RH  022%=      5-min Rain = 0
KMD1 042321Z 15003KT 39/13 A2988 RMK A01 T03850134  RH  022%=      5-min Rain = 0
KMD1 042322Z 16005KT 39/13 A2988 RMK A01 T03860134  RH  022%=      5-min Rain = 0
KMD1 042323Z 16005KT 38/13 A2988 RMK A01 T03830133  RH  023%=      5-min Rain = 0
KMD1 042324Z 15005KT 38/14 A2988 RMK A01 T03810137  RH  024%=      5-min Rain = 0
KMD1 042325Z 16006KT 38/14 A2987 RMK A01 T03800136  RH  023%=      5-min Rain = 0
KMD1 042326Z 16008KT 38/14 A2987 RMK A01 T03790136  RH  024%=      5-min Rain = 0
KMD1 042327Z 15008KT 38/13 A2987 RMK A01 T03770134  RH  023%=      5-min Rain = 0
KMD1 042328Z 17006KT 38/13 A2987 RMK A01 T03760133  RH  023%=      5-min Rain = 0
KMD1 042329Z 17005KT 38/13 A2987 RMK A01 T03750132  RH  024%=      5-min Rain = 0
KMD1 042330Z 17006KT 37/13 A2987 RMK A01 T03740134  RH  024%=      5-min Rain = 0
KMD1 042331Z 16010KT 38/13 A2987 RMK A01 T03750133  RH  024%=      5-min Rain = 0
KMD1 042332Z 16010KT 38/13 A2987 RMK A01 T03770133  RH  023%=      5-min Rain = 0
KMD1 042333Z 15007KT 38/14 A2987 RMK A01 T03780135  RH  024%=      5-min Rain = 0
KMD1 042334Z 16009KT 38/13 A2987 RMK A01 T03810134  RH  023%=      5-min Rain = 0
KMD1 042335Z 17009KT 38/14 A2987 RMK A01 T03820135  RH  023%=      5-min Rain = 0
KMD1 042336Z 18008KT 38/13 A2987 RMK A01 T03820132  RH  023%=      5-min Rain = 0
KMD1 042337Z 18007KT 38/13 A2987 RMK A01 T03810133  RH  023%=      5-min Rain = 0
KMD1 042338Z 17005KT 38/13 A2987 RMK A01 T03810132  RH  023%=      5-min Rain = 0
KMD1 042339Z 17006KT 38/13 A2987 RMK A01 T03810131  RH  023%=      5-min Rain = 0
KMD1 042340Z 17006KT 38/13 A2987 RMK A01 T03800130  RH  023%=      5-min Rain = 0
KMD1 042341Z 17007KT 38/13 A2987 RMK A01 T03790132  RH  023%=      5-min Rain = 0
KMD1 042342Z 15005KT 38/13 A2987 RMK A01 T03800133  RH  023%=      5-min Rain = 0
KMD1 042343Z 17007KT 38/13 A2987 RMK A01 T03820131  RH  023%=      5-min Rain = 0
KMD1 042344Z 16006KT 38/13 A2987 RMK A01 T03820129  RH  022%=      5-min Rain = 0
KMD1 042345Z 17006KT 38/13 A2987 RMK A01 T03810128  RH  022%=      5-min Rain = 0
KMD1 042346Z 17008KT 38/13 A2987 RMK A01 T03790127  RH  022%=      5-min Rain = 0
KMD1 042347Z 17007KT 38/13 A2987 RMK A01 T03780125  RH  022%=      5-min Rain = 0
KMD1 042348Z 18006KT 38/13 A2987 RMK A01 T03770126  RH  022%=      5-min Rain = 0
KMD1 042349Z 14006KT 38/13 A2987 RMK A01 T03770129  RH  023%=      5-min Rain = 0
KMD1 042350Z 15007KT 38/13 A2987 RMK A01 T03780128  RH  023%=      5-min Rain = 0
KMD1 042351Z 16005KT 38/13 A2987 RMK A01 T03790128  RH  022%=      5-min Rain = 0
KMD1 042352Z 15005KT 38/13 A2987 RMK A01 T03780128  RH  023%=      5-min Rain = 0
KMD1 042353Z 18002KT 38/13 A2987 RMK A01 T03780126  RH  022%=      5-min Rain = 0
KMD1 042354Z 18002KT 38/13 A2987 RMK A01 T03770126  RH  022%=      5-min Rain = 0
KMD1 042355Z 17003KT 38/13 A2987 RMK A01 T03760127  RH  023%=      5-min Rain = 0
KMD1 042356Z 16004KT 38/13 A2987 RMK A01 T03770129  RH  023%=      5-min Rain = 0
KMD1 042357Z 18004KT 38/13 A2987 RMK A01 T03780128  RH  023%=      5-min Rain = 0
KMD1 042358Z 18002KT 38/13 A2987 RMK A01 T03780128  RH  022%=      5-min Rain = 0
KMD1 042359Z 14005KT 38/13 A2987 RMK A01 T03790130  RH  023%=      5-min Rain = 0
KMD1 050000Z 14008KT 38/13 A2987 RMK A01 T03800131  RH  023%=      5-min Rain = 0
KMD1 050001Z 14006KT 38/13 A2987 RMK A01 T03780127  RH  022%=      5-min Rain = 0
KMD1 050002Z 14004KT 38/13 A2987 RMK A01 T03780130  RH  023%=      5-min Rain = 0
KMD1 050003Z 15006KT 38/13 A2987 RMK A01 T03780131  RH  023%=      5-min Rain = 0
KMD1 050004Z 16006KT 38/13 A2987 RMK A01 T03780132  RH  023%=      5-min Rain = 0
KMD1 050005Z 18004KT 38/13 A2987 RMK A01 T03770130  RH  023%=      5-min Rain = 0
KMD1 050006Z 15004KT 38/13 A2987 RMK A01 T03780131  RH  023%=      5-min Rain = 0
KMD1 050007Z 12004KT 38/13 A2987 RMK A01 T03780132  RH  023%=      5-min Rain = 0
KMD1 050008Z 12004KT 38/13 A2987 RMK A01 T03780130  RH  023%=      5-min Rain = 0
KMD1 050009Z 12004KT 38/13 A2987 RMK A01 T03780129  RH  023%=      5-min Rain = 0
KMD1 050010Z 15004KT 38/13 A2987 RMK A01 T03780131  RH  023%=      5-min Rain = 0
KMD1 050011Z 16004KT 38/13 A2987 RMK A01 T03780132  RH  023%=      5-min Rain = 0
KMD1 050012Z 16005KT 38/13 A2987 RMK A01 T03770132  RH  023%=      5-min Rain = 0
KMD1 050013Z 16006KT 38/13 A2987 RMK A01 T03770134  RH  023%=      5-min Rain = 0
KMD1 050014Z 14006KT 38/13 A2987 RMK A01 T03760134  RH  024%=      5-min Rain = 0
KMD1 050015Z 11004KT 38/13 A2987 RMK A01 T03750133  RH  024%=      5-min Rain = 0
KMD1 050016Z 11005KT 37/14 A2987 RMK A01 T03740136  RH  024%=      5-min Rain = 0
KMD1 050017Z 13003KT 38/14 A2987 RMK A01 T03750136  RH  024%=      5-min Rain = 0
KMD1 050018Z 17007KT 38/14 A2987 RMK A01 T03760140  RH  025%=      5-min Rain = 0
KMD1 050019Z 15009KT 38/14 A2987 RMK A01 T03760144  RH  025%=      5-min Rain = 0
KMD1 050020Z 15008KT 38/14 A2987 RMK A01 T03750142  RH  025%=      5-min Rain = 0
KMD1 050021Z 15008KT 37/14 A2987 RMK A01 T03740144  RH  026%=      5-min Rain = 0
KMD1 050022Z 15008KT 37/14 A2987 RMK A01 T03740142  RH  025%=      5-min Rain = 0
KMD1 050023Z 17009KT 37/14 A2987 RMK A01 T03740142  RH  025%=      5-min Rain = 0
KMD1 050024Z 17008KT 37/14 A2987 RMK A01 T03740142  RH  025%=      5-min Rain = 0
KMD1 050025Z 17010KT 37/14 A2987 RMK A01 T03730141  RH  025%=      5-min Rain = 0
KMD1 050026Z 18010KT 37/14 A2987 RMK A01 T03720141  RH  025%=      5-min Rain = 0
KMD1 050027Z 17010KT 37/14 A2987 RMK A01 T03710141  RH  025%=      5-min Rain = 0
KMD1 050028Z 15009KT 37/14 A2987 RMK A01 T03720141  RH  025%=      5-min Rain = 0
KMD1 050029Z 16009KT 37/14 A2987 RMK A01 T03720144  RH  026%=      5-min Rain = 0
KMD1 050030Z 16010KT 37/14 A2987 RMK A01 T03720142  RH  025%=      5-min Rain = 0
KMD1 050031Z 16011KT 37/14 A2987 RMK A01 T03710142  RH  026%=      5-min Rain = 0
KMD1 050032Z 16011KT 37/14 A2987 RMK A01 T03700141  RH  026%=      5-min Rain = 0
KMD1 050033Z 17010KT 37/14 A2987 RMK A01 T03690142  RH  026%=      5-min Rain = 0
KMD1 050034Z 17010KT 37/14 A2987 RMK A01 T03690142  RH  026%=      5-min Rain = 0
KMD1 050035Z 16010KT 37/14 A2987 RMK A01 T03680143  RH  026%=      5-min Rain = 0
KMD1 050036Z 17009KT 37/14 A2987 RMK A01 T03680142  RH  026%=      5-min Rain = 0
KMD1 050037Z 17009KT 37/14 A2987 RMK A01 T03680144  RH  026%=      5-min Rain = 0
KMD1 050038Z 16007KT 37/15 A2987 RMK A01 T03670145  RH  027%=      5-min Rain = 0
KMD1 050039Z 15009KT 37/15 A2987 RMK A01 T03670145  RH  027%=      5-min Rain = 0
KMD1 050040Z 16007KT 37/15 A2988 RMK A01 T03670145  RH  027%=      5-min Rain = 0
KMD1 050041Z 16007KT 37/15 A2988 RMK A01 T03670145  RH  027%=      5-min Rain = 0
KMD1 050042Z 16007KT 37/15 A2988 RMK A01 T03670145  RH  027%=      5-min Rain = 0
KMD1 050043Z 15007KT 37/15 A2988 RMK A01 T03670145  RH  027%=      5-min Rain = 0
KMD1 050044Z 16008KT 37/15 A2988 RMK A01 T03670145  RH  027%=      5-min Rain = 0
KMD1 050045Z 16008KT 37/15 A2988 RMK A01 T03660145  RH  027%=      5-min Rain = 0
KMD1 050046Z 15010KT 37/15 A2988 RMK A01 T03650145  RH  027%=      5-min Rain = 0
KMD1 050047Z 16007KT 36/15 A2988 RMK A01 T03640146  RH  027%=      5-min Rain = 0
KMD1 050048Z 15008KT 36/15 A2987 RMK A01 T03640145  RH  027%=      5-min Rain = 0
KMD1 050049Z 15007KT 36/15 A2987 RMK A01 T03630146  RH  027%=      5-min Rain = 0
KMD1 050050Z 15007KT 36/15 A2987 RMK A01 T03630147  RH  028%=      5-min Rain = 0
KMD1 050051Z 15008KT 36/15 A2987 RMK A01 T03630146  RH  027%=      5-min Rain = 0
KMD1 050052Z 15007KT 36/15 A2988 RMK A01 T03630146  RH  027%=      5-min Rain = 0
KMD1 050053Z 15006KT 36/15 A2988 RMK A01 T03620146  RH  028%=      5-min Rain = 0
KMD1 050054Z 16007KT 36/15 A2988 RMK A01 T03620147  RH  028%=      5-min Rain = 0
KMD1 050055Z 15007KT 36/15 A2987 RMK A01 T03620147  RH  028%=      5-min Rain = 0
KMD1 050056Z 15006KT 36/15 A2988 RMK A01 T03610146  RH  028%=      5-min Rain = 0
KMD1 050057Z 15008KT 36/15 A2988 RMK A01 T03610148  RH  028%=      5-min Rain = 0
KMD1 050058Z 15006KT 36/15 A2988 RMK A01 T03610147  RH  028%=      5-min Rain = 0
KMD1 050059Z 15006KT 36/15 A2988 RMK A01 T03600147  RH  028%=      5-min Rain = 0
KMD1 050100Z 14006KT 36/15 A2988 RMK A01 T03600148  RH  028%=      5-min Rain = 0
KMD1 050101Z 15006KT 36/15 A2988 RMK A01 T03600148  RH  028%=      5-min Rain = 0
KMD1 050102Z 15006KT 36/15 A2988 RMK A01 T03590148  RH  028%=      5-min Rain = 0
KMD1 050103Z 15006KT 36/15 A2988 RMK A01 T03590148  RH  028%=      5-min Rain = 0
KMD1 050104Z 15005KT 36/15 A2988 RMK A01 T03590147  RH  028%=      5-min Rain = 0
KMD1 050105Z 15006KT 36/15 A2988 RMK A01 T03580148  RH  029%=      5-min Rain = 0
KMD1 050106Z 15007KT 36/15 A2988 RMK A01 T03580146  RH  028%=      5-min Rain = 0
KMD1 050107Z 15006KT 36/15 A2988 RMK A01 T03570147  RH  028%=      5-min Rain = 0
KMD1 050108Z 15006KT 36/15 A2988 RMK A01 T03570147  RH  029%=      5-min Rain = 0
KMD1 050109Z 15006KT 36/15 A2988 RMK A01 T03560147  RH  029%=      5-min Rain = 0
KMD1 050110Z 15005KT 36/15 A2988 RMK A01 T03560147  RH  029%=      5-min Rain = 0
KMD1 050111Z 14006KT 36/15 A2988 RMK A01 T03550147  RH  029%=      5-min Rain = 0
KMD1 050112Z 15005KT 36/15 A2988 RMK A01 T03550146  RH  029%=      5-min Rain = 0
KMD1 050113Z 15006KT 35/15 A2988 RMK A01 T03540147  RH  029%=      5-min Rain = 0
KMD1 050114Z 14006KT 35/15 A2988 RMK A01 T03540146  RH  029%=      5-min Rain = 0
KMD1 050115Z 14006KT 35/15 A2988 RMK A01 T03530146  RH  029%=      5-min Rain = 0
KMD1 050116Z 14005KT 35/15 A2988 RMK A01 T03530147  RH  029%=      5-min Rain = 0
KMD1 050117Z 14008KT 35/15 A2988 RMK A01 T03520146  RH  029%=      5-min Rain = 0
KMD1 050118Z 14008KT 35/14 A2988 RMK A01 T03520143  RH  029%=      5-min Rain = 0
KMD1 050119Z 14008KT 35/14 A2989 RMK A01 T03520144  RH  029%=      5-min Rain = 0
KMD1 050120Z 14007KT 35/14 A2989 RMK A01 T03520144  RH  029%=      5-min Rain = 0
KMD1 050121Z 15006KT 35/15 A2989 RMK A01 T03510145  RH  029%=      5-min Rain = 0
KMD1 050122Z 15006KT 35/15 A2989 RMK A01 T03500145  RH  029%=      5-min Rain = 0
KMD1 050123Z 14006KT 35/15 A2989 RMK A01 T03500145  RH  029%=      5-min Rain = 0
KMD1 050124Z 15006KT 35/14 A2989 RMK A01 T03490144  RH  029%=      5-min Rain = 0
KMD1 050125Z 14005KT 35/14 A2989 RMK A01 T03480144  RH  029%=      5-min Rain = 0
KMD1 050126Z 14006KT 35/14 A2989 RMK A01 T03480144  RH  030%=      5-min Rain = 0
KMD1 050127Z 14005KT 35/14 A2989 RMK A01 T03470144  RH  030%=      5-min Rain = 0
KMD1 050128Z 14005KT 35/14 A2989 RMK A01 T03470144  RH  030%=      5-min Rain = 0
KMD1 050129Z 15006KT 35/14 A2989 RMK A01 T03460144  RH  030%=      5-min Rain = 0
KMD1 050130Z 14005KT 35/14 A2989 RMK A01 T03460144  RH  030%=      5-min Rain = 0
KMD1 050131Z 14006KT 35/14 A2989 RMK A01 T03450143  RH  030%=      5-min Rain = 0
KMD1 050132Z 14006KT 35/14 A2989 RMK A01 T03450144  RH  030%=      5-min Rain = 0
KMD1 050133Z 14006KT 34/14 A2989 RMK A01 T03440143  RH  030%=      5-min Rain = 0
KMD1 050134Z 14006KT 34/14 A2989 RMK A01 T03440142  RH  030%=      5-min Rain = 0
KMD1 050135Z 14006KT 34/14 A2989 RMK A01 T03440142  RH  030%=      5-min Rain = 0
KMD1 050136Z 14006KT 34/14 A2989 RMK A01 T03430143  RH  030%=      5-min Rain = 0
KMD1 050137Z 13006KT 34/14 A2989 RMK A01 T03420141  RH  030%=      5-min Rain = 0
KMD1 050138Z 13007KT 34/14 A2989 RMK A01 T03420141  RH  030%=      5-min Rain = 0
KMD1 050139Z 13006KT 34/14 A2989 RMK A01 T03420141  RH  030%=      5-min Rain = 0
KMD1 050140Z 13007KT 34/14 A2989 RMK A01 T03420141  RH  030%=      5-min Rain = 0
KMD1 050141Z 14007KT 34/14 A2989 RMK A01 T03420140  RH  030%=      5-min Rain = 0
KMD1 050142Z 14008KT 34/14 A2989 RMK A01 T03420140  RH  030%=      5-min Rain = 0
KMD1 050143Z 14007KT 34/14 A2989 RMK A01 T03420139  RH  030%=      5-min Rain = 0
KMD1 050144Z 13006KT 34/14 A2989 RMK A01 T03410141  RH  030%=      5-min Rain = 0
KMD1 050145Z 13007KT 34/14 A299 RMK A01 T03400141  RH  030%=      5-min Rain = 0
KMD1 050146Z 14008KT 34/14 A299 RMK A01 T03380140  RH  030%=      5-min Rain = 0
KMD1 050147Z 13007KT 34/14 A299 RMK A01 T03380139  RH  030%=      5-min Rain = 0
KMD1 050148Z 13006KT 34/14 A299 RMK A01 T03380139  RH  030%=      5-min Rain = 0
KMD1 050149Z 13006KT 34/14 A299 RMK A01 T03370139  RH  030%=      5-min Rain = 0
KMD1 050150Z 13007KT 34/14 A299 RMK A01 T03360139  RH  030%=      5-min Rain = 0
KMD1 050151Z 13008KT 34/14 A299 RMK A01 T03350137  RH  030%=      5-min Rain = 0
KMD1 050152Z 13008KT 34/14 A299 RMK A01 T03360137  RH  030%=      5-min Rain = 0
KMD1 050153Z 13007KT 34/14 A299 RMK A01 T03360137  RH  030%=      5-min Rain = 0
KMD1 050154Z 13008KT 34/14 A299 RMK A01 T03350137  RH  030%=      5-min Rain = 0
KMD1 050155Z 13008KT 34/14 A299 RMK A01 T03360136  RH  030%=      5-min Rain = 0
KMD1 050156Z 13007KT 34/14 A299 RMK A01 T03360136  RH  030%=      5-min Rain = 0
KMD1 050157Z 14007KT 34/14 A299 RMK A01 T03350137  RH  030%=      5-min Rain = 0
KMD1 050158Z 13007KT 34/14 A299 RMK A01 T03350136  RH  030%=      5-min Rain = 0
KMD1 050159Z 13006KT 33/14 A299 RMK A01 T03340136  RH  030%=      5-min Rain = 0
KMD1 050200Z 14007KT 33/14 A299 RMK A01 T03330137  RH  031%=      5-min Rain = 0
KMD1 050201Z 14007KT 33/14 A299 RMK A01 T03320136  RH  030%=      5-min Rain = 0
KMD1 050202Z 14007KT 33/14 A299 RMK A01 T03320136  RH  031%=      5-min Rain = 0
KMD1 050203Z 13006KT 33/14 A299 RMK A01 T03320136  RH  031%=      5-min Rain = 0
KMD1 050204Z 13007KT 33/14 A299 RMK A01 T03310136  RH  031%=      5-min Rain = 0
KMD1 050205Z 13009KT 33/14 A299 RMK A01 T03310135  RH  031%=      5-min Rain = 0
KMD1 050206Z 13007KT 33/13 A299 RMK A01 T03310134  RH  030%=      5-min Rain = 0
KMD1 050207Z 13007KT 33/14 A299 RMK A01 T03310135  RH  031%=      5-min Rain = 0
KMD1 050208Z 14007KT 33/14 A299 RMK A01 T03310135  RH  031%=      5-min Rain = 0
KMD1 050209Z 14008KT 33/13 A299 RMK A01 T03300134  RH  031%=      5-min Rain = 0
KMD1 050210Z 14006KT 33/13 A299 RMK A01 T03300134  RH  030%=      5-min Rain = 0
KMD1 050211Z 14007KT 33/14 A299 RMK A01 T03300135  RH  031%=      5-min Rain = 0
KMD1 050212Z 14007KT 33/13 A2991 RMK A01 T03290134  RH  031%=      5-min Rain = 0
KMD1 050213Z 14005KT 33/13 A2991 RMK A01 T03290133  RH  031%=      5-min Rain = 0
KMD1 050214Z 14006KT 33/13 A2991 RMK A01 T03290133  RH  031%=      5-min Rain = 0
KMD1 050215Z 14007KT 33/13 A2991 RMK A01 T03290133  RH  030%=      5-min Rain = 0
KMD1 050216Z 14007KT 33/13 A2991 RMK A01 T03290132  RH  030%=      5-min Rain = 0
KMD1 050217Z 14007KT 33/13 A2991 RMK A01 T03290132  RH  030%=      5-min Rain = 0
KMD1 050218Z 14007KT 33/13 A2991 RMK A01 T03290131  RH  030%=      5-min Rain = 0
KMD1 050219Z 13007KT 33/13 A2991 RMK A01 T03290132  RH  030%=      5-min Rain = 0
KMD1 050220Z 15007KT 33/13 A2991 RMK A01 T03290132  RH  030%=      5-min Rain = 0
KMD1 050221Z 14007KT 33/13 A2991 RMK A01 T03280132  RH  030%=      5-min Rain = 0
KMD1 050222Z 14008KT 33/13 A2991 RMK A01 T03280131  RH  030%=      5-min Rain = 0
KMD1 050223Z 14008KT 33/13 A2991 RMK A01 T03280130  RH  030%=      5-min Rain = 0
KMD1 050224Z 14007KT 33/13 A2991 RMK A01 T03280130  RH  030%=      5-min Rain = 0
KMD1 050225Z 14008KT 33/13 A2991 RMK A01 T03280131  RH  030%=      5-min Rain = 0
KMD1 050226Z 14007KT 33/13 A2991 RMK A01 T03270130  RH  030%=      5-min Rain = 0
KMD1 050227Z 14007KT 33/13 A2991 RMK A01 T03270130  RH  030%=      5-min Rain = 0
KMD1 050228Z 14008KT 33/13 A2991 RMK A01 T03270130  RH  030%=      5-min Rain = 0
KMD1 050229Z 13006KT 33/13 A2991 RMK A01 T03270130  RH  030%=      5-min Rain = 0
KMD1 050230Z 14006KT 33/13 A2991 RMK A01 T03270131  RH  030%=      5-min Rain = 0
KMD1 050231Z 13007KT 33/13 A2991 RMK A01 T03260131  RH  031%=      5-min Rain = 0
KMD1 050232Z 14008KT 33/13 A2991 RMK A01 T03260131  RH  031%=      5-min Rain = 0
KMD1 050233Z 14006KT 33/13 A2991 RMK A01 T03260131  RH  031%=      5-min Rain = 0
KMD1 050234Z 14007KT 33/13 A2991 RMK A01 T03250132  RH  031%=      5-min Rain = 0
KMD1 050235Z 14007KT 32/13 A2991 RMK A01 T03240131  RH  031%=      5-min Rain = 0
KMD1 050236Z 14006KT 32/13 A2991 RMK A01 T03240132  RH  031%=      5-min Rain = 0
KMD1 050237Z 14006KT 32/13 A2991 RMK A01 T03230131  RH  031%=      5-min Rain = 0
KMD1 050238Z 14006KT 32/13 A2991 RMK A01 T03230131  RH  031%=      5-min Rain = 0
KMD1 050239Z 14006KT 32/13 A2991 RMK A01 T03230132  RH  031%=      5-min Rain = 0
KMD1 050240Z 14005KT 32/13 A2991 RMK A01 T03230132  RH  031%=      5-min Rain = 0
KMD1 050241Z 14008KT 32/13 A2991 RMK A01 T03220132  RH  032%=      5-min Rain = 0
KMD1 050242Z 14006KT 32/13 A2991 RMK A01 T03210131  RH  031%=      5-min Rain = 0
KMD1 050243Z 14006KT 32/13 A2991 RMK A01 T03220132  RH  032%=      5-min Rain = 0
KMD1 050244Z 14006KT 32/13 A2991 RMK A01 T03210132  RH  032%=      5-min Rain = 0
KMD1 050245Z 14007KT 32/13 A2992 RMK A01 T03200132  RH  032%=      5-min Rain = 0
KMD1 050246Z 14006KT 32/13 A2992 RMK A01 T03200132  RH  032%=      5-min Rain = 0
KMD1 050247Z 14006KT 32/13 A2992 RMK A01 T03200132  RH  032%=      5-min Rain = 0
KMD1 050248Z 13006KT 32/13 A2992 RMK A01 T03200132  RH  032%=      5-min Rain = 0
KMD1 050249Z 14006KT 32/13 A2992 RMK A01 T03200133  RH  032%=      5-min Rain = 0
KMD1 050250Z 14006KT 32/13 A2992 RMK A01 T03190133  RH  032%=      5-min Rain = 0
KMD1 050251Z 14007KT 32/13 A2992 RMK A01 T03180132  RH  032%=      5-min Rain = 0
KMD1 050252Z 14007KT 32/13 A2992 RMK A01 T03180132  RH  032%=      5-min Rain = 0
KMD1 050253Z 14007KT 32/13 A2992 RMK A01 T03180133  RH  032%=      5-min Rain = 0
KMD1 050254Z 14007KT 32/13 A2992 RMK A01 T03170133  RH  033%=      5-min Rain = 0
KMD1 050255Z 14006KT 32/13 A2992 RMK A01 T03170133  RH  033%=      5-min Rain = 0
KMD1 050256Z 14006KT 32/13 A2992 RMK A01 T03160133  RH  033%=      5-min Rain = 0
KMD1 050257Z 14007KT 32/13 A2992 RMK A01 T03170133  RH  033%=      5-min Rain = 0
KMD1 050258Z 14006KT 32/13 A2992 RMK A01 T03170132  RH  033%=      5-min Rain = 0
KMD1 050259Z 14006KT 32/13 A2992 RMK A01 T03170133  RH  033%=      5-min Rain = 0
KMD1 050300Z 14005KT 32/13 A2992 RMK A01 T03160133  RH  033%=      5-min Rain = 0
KMD1 050301Z 13006KT 32/13 A2992 RMK A01 T03150134  RH  033%=      5-min Rain = 0
KMD1 050302Z 14006KT 32/13 A2992 RMK A01 T03150133  RH  033%=      5-min Rain = 0
KMD1 050303Z 14007KT 31/13 A2992 RMK A01 T03140133  RH  033%=      5-min Rain = 0
KMD1 050304Z 14006KT 31/13 A2993 RMK A01 T03140133  RH  033%=      5-min Rain = 0
KMD1 050305Z 14006KT 31/13 A2993 RMK A01 T03140134  RH  033%=      5-min Rain = 0
KMD1 050306Z 14006KT 31/13 A2993 RMK A01 T03140134  RH  033%=      5-min Rain = 0
KMD1 050307Z 14007KT 31/13 A2993 RMK A01 T03140134  RH  034%=      5-min Rain = 0
KMD1 050308Z 14006KT 31/13 A2993 RMK A01 T03130134  RH  034%=      5-min Rain = 0
KMD1 050309Z 14006KT 31/14 A2993 RMK A01 T03130135  RH  034%=      5-min Rain = 0
KMD1 050310Z 13006KT 31/14 A2993 RMK A01 T03120135  RH  034%=      5-min Rain = 0
KMD1 050311Z 14006KT 31/14 A2993 RMK A01 T03120135  RH  034%=      5-min Rain = 0
KMD1 050312Z 14006KT 31/14 A2993 RMK A01 T03120136  RH  034%=      5-min Rain = 0
KMD1 050313Z 14005KT 31/14 A2993 RMK A01 T03120136  RH  034%=      5-min Rain = 0
KMD1 050314Z 14006KT 31/14 A2993 RMK A01 T03120137  RH  035%=      5-min Rain = 0
KMD1 050315Z 15006KT 31/14 A2993 RMK A01 T03110138  RH  035%=      5-min Rain = 0
KMD1 050316Z 15007KT 31/14 A2993 RMK A01 T03110139  RH  035%=      5-min Rain = 0
KMD1 050317Z 14006KT 31/14 A2993 RMK A01 T03110139  RH  035%=      5-min Rain = 0
KMD1 050318Z 14006KT 31/14 A2993 RMK A01 T03110139  RH  035%=      5-min Rain = 0
KMD1 050319Z 14006KT 31/14 A2993 RMK A01 T03110139  RH  035%=      5-min Rain = 0
KMD1 050320Z 14007KT 31/14 A2994 RMK A01 T03110140  RH  035%=      5-min Rain = 0
KMD1 050321Z 14007KT 31/14 A2994 RMK A01 T03110141  RH  035%=      5-min Rain = 0
KMD1 050322Z 14006KT 31/14 A2994 RMK A01 T03110141  RH  035%=      5-min Rain = 0
KMD1 050323Z 14007KT 31/14 A2994 RMK A01 T03110141  RH  036%=      5-min Rain = 0
KMD1 050324Z 14006KT 31/14 A2994 RMK A01 T03120142  RH  036%=      5-min Rain = 0
KMD1 050325Z 15007KT 31/14 A2994 RMK A01 T03120143  RH  036%=      5-min Rain = 0
KMD1 050326Z 15008KT 31/14 A2994 RMK A01 T03120142  RH  036%=      5-min Rain = 0
KMD1 050327Z 14007KT 31/14 A2994 RMK A01 T03120142  RH  036%=      5-min Rain = 0
KMD1 050328Z 14006KT 31/14 A2994 RMK A01 T03130142  RH  036%=      5-min Rain = 0
KMD1 050329Z 15006KT 31/14 A2994 RMK A01 T03120143  RH  036%=      5-min Rain = 0
KMD1 050330Z 14006KT 31/14 A2994 RMK A01 T03120143  RH  036%=      5-min Rain = 0
KMD1 050331Z 14008KT 31/14 A2994 RMK A01 T03120142  RH  036%=      5-min Rain = 0
KMD1 050332Z 14008KT 31/14 A2994 RMK A01 T03120142  RH  036%=      5-min Rain = 0
KMD1 050333Z 14007KT 31/14 A2994 RMK A01 T03130142  RH  035%=      5-min Rain = 0
KMD1 050334Z 15006KT 31/14 A2994 RMK A01 T03130142  RH  035%=      5-min Rain = 0
KMD1 050335Z 14006KT 31/14 A2994 RMK A01 T03130143  RH  036%=      5-min Rain = 0
KMD1 050336Z 14006KT 31/14 A2994 RMK A01 T03120143  RH  036%=      5-min Rain = 0
KMD1 050337Z 13006KT 31/14 A2994 RMK A01 T03120142  RH  036%=      5-min Rain = 0
KMD1 050338Z 14006KT 31/14 A2994 RMK A01 T03120143  RH  036%=      5-min Rain = 0
KMD1 050339Z 13006KT 31/14 A2994 RMK A01 T03110143  RH  036%=      5-min Rain = 0
KMD1 050340Z 14005KT 31/14 A2994 RMK A01 T03100143  RH  036%=      5-min Rain = 0
KMD1 050341Z 13005KT 31/14 A2994 RMK A01 T03090143  RH  036%=      5-min Rain = 0
KMD1 050342Z 13005KT 31/14 A2994 RMK A01 T03080143  RH  037%=      5-min Rain = 0
KMD1 050343Z 12005KT 31/14 A2994 RMK A01 T03080143  RH  037%=      5-min Rain = 0
KMD1 050344Z 13005KT 31/14 A2994 RMK A01 T03070144  RH  037%=      5-min Rain = 0
KMD1 050345Z 13007KT 31/14 A2994 RMK A01 T03060143  RH  037%=      5-min Rain = 0
KMD1 050346Z 13006KT 31/14 A2994 RMK A01 T03050142  RH  037%=      5-min Rain = 0
KMD1 050347Z 13006KT 31/14 A2994 RMK A01 T03060143  RH  037%=      5-min Rain = 0
KMD1 050348Z 13006KT 31/14 A2994 RMK A01 T03050143  RH  037%=      5-min Rain = 0
KMD1 050349Z 13006KT 31/14 A2994 RMK A01 T03050143  RH  037%=      5-min Rain = 0
KMD1 050350Z 13006KT 31/14 A2994 RMK A01 T03050142  RH  037%=      5-min Rain = 0
KMD1 050351Z 13006KT 31/14 A2994 RMK A01 T03050142  RH  037%=      5-min Rain = 0
KMD1 050352Z 13006KT 31/14 A2994 RMK A01 T03050142  RH  037%=      5-min Rain = 0
KMD1 050353Z 13006KT 31/14 A2994 RMK A01 T03050142  RH  037%=      5-min Rain = 0
KMD1 050354Z 13006KT 31/14 A2994 RMK A01 T03050142  RH  037%=      5-min Rain = 0
KMD1 050355Z 13006KT 31/14 A2994 RMK A01 T03050142  RH  037%=      5-min Rain = 0
KMD1 050356Z 13006KT 31/14 A2994 RMK A01 T03050143  RH  037%=      5-min Rain = 0
KMD1 050357Z 12006KT 30/14 A2994 RMK A01 T03040142  RH  037%=      5-min Rain = 0
KMD1 050358Z 13006KT 30/14 A2994 RMK A01 T03030142  RH  037%=      5-min Rain = 0
KMD1 050359Z 13006KT 30/14 A2994 RMK A01 T03030142  RH  037%=      5-min Rain = 0
KMD1 050400Z 13005KT 30/14 A2994 RMK A01 T03030143  RH  038%=      5-min Rain = 0
KMD1 050401Z 13005KT 30/14 A2994 RMK A01 T03020143  RH  038%=      5-min Rain = 0
KMD1 050402Z 13005KT 30/14 A2994 RMK A01 T03010143  RH  038%=      5-min Rain = 0
KMD1 050403Z 13005KT 30/14 A2994 RMK A01 T03000143  RH  038%=      5-min Rain = 0
KMD1 050404Z 13005KT 30/14 A2994 RMK A01 T03000142  RH  038%=      5-min Rain = 0
KMD1 050405Z 14005KT 30/14 A2994 RMK A01 T03000142  RH  038%=      5-min Rain = 0
KMD1 050406Z 14005KT 30/14 A2994 RMK A01 T03000142  RH  038%=      5-min Rain = 0
KMD1 050407Z 14005KT 30/14 A2994 RMK A01 T03010142  RH  038%=      5-min Rain = 0
KMD1 050408Z 14005KT 30/14 A2994 RMK A01 T03020142  RH  038%=      5-min Rain = 0
KMD1 050409Z 14005KT 30/14 A2994 RMK A01 T03010142  RH  038%=      5-min Rain = 0
KMD1 050410Z 14005KT 30/14 A2994 RMK A01 T03010142  RH  038%=      5-min Rain = 0
KMD1 050411Z 14005KT 30/14 A2994 RMK A01 T03010142  RH  038%=      5-min Rain = 0
KMD1 050412Z 14005KT 30/14 A2994 RMK A01 T03020143  RH  038%=      5-min Rain = 0
KMD1 050413Z 15006KT 30/14 A2994 RMK A01 T03010142  RH  038%=      5-min Rain = 0
KMD1 050414Z 14005KT 30/14 A2994 RMK A01 T03010141  RH  038%=      5-min Rain = 0
KMD1 050415Z 15006KT 30/14 A2994 RMK A01 T03020141  RH  038%=      5-min Rain = 0
KMD1 050416Z 15004KT 30/14 A2994 RMK A01 T03020142  RH  038%=      5-min Rain = 0
KMD1 050417Z 16005KT 30/14 A2994 RMK A01 T03020142  RH  038%=      5-min Rain = 0
KMD1 050418Z 16004KT 30/14 A2994 RMK A01 T03020142  RH  038%=      5-min Rain = 0
KMD1 050419Z 16005KT 30/14 A2994 RMK A01 T03020142  RH  038%=      5-min Rain = 0
KMD1 050420Z 15004KT 30/14 A2994 RMK A01 T03010142  RH  038%=      5-min Rain = 0
KMD1 050421Z 17004KT 30/14 A2994 RMK A01 T03010142  RH  038%=      5-min Rain = 0
KMD1 050422Z 16004KT 30/14 A2993 RMK A01 T03010142  RH  038%=      5-min Rain = 0
KMD1 050423Z 17005KT 30/14 A2993 RMK A01 T03010142  RH  038%=      5-min Rain = 0
KMD1 050424Z 16005KT 30/14 A2993 RMK A01 T03010143  RH  038%=      5-min Rain = 0
KMD1 050425Z 17004KT 30/14 A2993 RMK A01 T03000142  RH  038%=      5-min Rain = 0
KMD1 050426Z 16005KT 30/14 A2993 RMK A01 T03000142  RH  038%=      5-min Rain = 0
KMD1 050427Z 17005KT 30/14 A2993 RMK A01 T03010142  RH  038%=      5-min Rain = 0
KMD1 050428Z 18003KT 30/14 A2993 RMK A01 T03010142  RH  038%=      5-min Rain = 0
KMD1 050429Z 17003KT 30/14 A2993 RMK A01 T03020142  RH  038%=      5-min Rain = 0
KMD1 050430Z 17003KT 30/14 A2993 RMK A01 T03020142  RH  038%=      5-min Rain = 0
KMD1 050431Z 18002KT 30/14 A2993 RMK A01 T03010143  RH  038%=      5-min Rain = 0
KMD1 050432Z 18002KT 30/14 A2993 RMK A01 T03010143  RH  038%=      5-min Rain = 0
KMD1 050433Z 19002KT 30/14 A2993 RMK A01 T03000143  RH  038%=      5-min Rain = 0
KMD1 050434Z 18001KT 30/14 A2993 RMK A01 T03000143  RH  039%=      5-min Rain = 0
KMD1 050435Z 18002KT 30/14 A2993 RMK A01 T02990143  RH  039%=      5-min Rain = 0
KMD1 050436Z 18002KT 30/14 A2993 RMK A01 T02980143  RH  039%=      5-min Rain = 0
KMD1 050437Z 17001KT 30/14 A2993 RMK A01 T02980144  RH  039%=      5-min Rain = 0
KMD1 050438Z 17000KT 30/14 A2993 RMK A01 T02970144  RH  039%=      5-min Rain = 0
KMD1 050439Z 20001KT 30/14 A2993 RMK A01 T02960143  RH  039%=      5-min Rain = 0
KMD1 050440Z 22001KT 30/14 A2993 RMK A01 T02950144  RH  040%=      5-min Rain = 0
KMD1 050441Z 22001KT 29/14 A2993 RMK A01 T02940144  RH  040%=      5-min Rain = 0
KMD1 050442Z 21000KT 29/14 A2993 RMK A01 T02920143  RH  040%=      5-min Rain = 0
KMD1 050443Z 00000KT 29/14 A2993 RMK A01 T02920144  RH  040%=      5-min Rain = 0
KMD1 050444Z 00000KT 29/14 A2993 RMK A01 T02920144  RH  040%=      5-min Rain = 0
KMD1 050445Z 29001KT 29/15 A2993 RMK A01 T02900145  RH  041%=      5-min Rain = 0
KMD1 050446Z 28000KT 29/15 A2993 RMK A01 T02880145  RH  041%=      5-min Rain = 0
KMD1 050447Z 00000KT 29/14 A2993 RMK A01 T02880144  RH  042%=      5-min Rain = 0
KMD1 050448Z 35001KT 29/15 A2993 RMK A01 T02880145  RH  042%=      5-min Rain = 0
KMD1 050449Z 00001KT 29/15 A2993 RMK A01 T02870147  RH  043%=      5-min Rain = 0
KMD1 050450Z 35001KT 29/15 A2993 RMK A01 T02850147  RH  043%=      5-min Rain = 0
KMD1 050451Z 34001KT 28/15 A2993 RMK A01 T02840146  RH  043%=      5-min Rain = 0
KMD1 050452Z 33001KT 28/15 A2993 RMK A01 T02830147  RH  043%=      5-min Rain = 0
KMD1 050453Z 32002KT 28/15 A2993 RMK A01 T02830147  RH  043%=      5-min Rain = 0
KMD1 050454Z 32002KT 28/15 A2993 RMK A01 T02820147  RH  044%=      5-min Rain = 0
KMD1 050455Z 32002KT 28/15 A2993 RMK A01 T02820145  RH  043%=      5-min Rain = 0
KMD1 050456Z 32002KT 28/15 A2993 RMK A01 T02820145  RH  043%=      5-min Rain = 0
KMD1 050457Z 30001KT 28/15 A2993 RMK A01 T02810145  RH  043%=      5-min Rain = 0
KMD1 050458Z 30001KT 28/15 A2993 RMK A01 T02810145  RH  043%=      5-min Rain = 0
KMD1 050459Z 31001KT 28/15 A2993 RMK A01 T02810146  RH  043%=      5-min Rain = 0

Page generated in 0.0783 seconds.